<?xml version="1.0" encoding="UTF-8" standalone="no" ?>
<gpx xmlns="http://www.topografix.com/GPX/1/1" xmlns:xsi="http://www.w3.org/2001/XMLSchema-instance" xsi:schemaLocation="http://www.topografix.com/GPX/1/1 http://www.topografix.com/GPX/1/1/gpx.xsd" version="1.1" creator="VisuGPX - https://www.visugpx.com">
  <metadata>
    <name>2022-06-28 18:27:48</name>
    <desc><![CDATA[récuperation VTT ae magasin de sport et rapatriement chez son propriétaire  un bel essai d'un sunn  gordon s2 a part la taille de cadre un peut juste pour moi cela reste un vtt tes joueur]]></desc>
  </metadata>
  <trk>
    <name><![CDATA[2022-06-28 18:27:48]]></name>
    <extensions>
      <line xmlns="http://www.topografix.com/GPX/gpx_style/0/2">
        <color>0000FF</color>
        <width>4</width>
      </line>
    </extensions>
    <trkseg>
      <trkpt lat="45.03791" lon="3.06184">
        <ele>916.97</ele>
        <time>2022-06-28T14:22:56Z</time>
      </trkpt>
      <trkpt lat="45.03792" lon="3.06177">
        <ele>916.97</ele>
        <time>2022-06-28T14:22:57Z</time>
      </trkpt>
      <trkpt lat="45.03791" lon="3.06174">
        <ele>916.97</ele>
        <time>2022-06-28T14:22:58Z</time>
      </trkpt>
      <trkpt lat="45.0379" lon="3.06169">
        <ele>917.07</ele>
        <time>2022-06-28T14:22:59Z</time>
      </trkpt>
      <trkpt lat="45.03789" lon="3.06166">
        <ele>917.15</ele>
        <time>2022-06-28T14:23:00Z</time>
      </trkpt>
      <trkpt lat="45.03783" lon="3.06162">
        <ele>917.4</ele>
        <time>2022-06-28T14:23:06Z</time>
      </trkpt>
      <trkpt lat="45.03781" lon="3.06162">
        <ele>917.43</ele>
        <time>2022-06-28T14:23:07Z</time>
      </trkpt>
      <trkpt lat="45.03778" lon="3.06161">
        <ele>917.43</ele>
        <time>2022-06-28T14:23:08Z</time>
      </trkpt>
      <trkpt lat="45.03767" lon="3.06153">
        <ele>917.48</ele>
        <time>2022-06-28T14:23:12Z</time>
      </trkpt>
      <trkpt lat="45.03766" lon="3.06149">
        <ele>917.48</ele>
        <time>2022-06-28T14:23:13Z</time>
      </trkpt>
      <trkpt lat="45.03765" lon="3.06144">
        <ele>917.48</ele>
        <time>2022-06-28T14:23:14Z</time>
      </trkpt>
      <trkpt lat="45.03749" lon="3.06079">
        <ele>917.8</ele>
        <time>2022-06-28T14:23:28Z</time>
      </trkpt>
      <trkpt lat="45.03729" lon="3.0599">
        <ele>919.29</ele>
        <time>2022-06-28T14:23:46Z</time>
      </trkpt>
      <trkpt lat="45.03707" lon="3.05887">
        <ele>916.83</ele>
        <time>2022-06-28T14:23:59Z</time>
      </trkpt>
      <trkpt lat="45.03687" lon="3.0582">
        <ele>914.09</ele>
        <time>2022-06-28T14:24:06Z</time>
      </trkpt>
      <trkpt lat="45.0364" lon="3.05718">
        <ele>912.43</ele>
        <time>2022-06-28T14:24:20Z</time>
      </trkpt>
      <trkpt lat="45.03565" lon="3.05658">
        <ele>912.33</ele>
        <time>2022-06-28T14:24:36Z</time>
      </trkpt>
      <trkpt lat="45.03505" lon="3.05617">
        <ele>913.47</ele>
        <time>2022-06-28T14:24:50Z</time>
      </trkpt>
      <trkpt lat="45.03484" lon="3.05611">
        <ele>914.02</ele>
        <time>2022-06-28T14:24:55Z</time>
      </trkpt>
      <trkpt lat="45.0348" lon="3.05611">
        <ele>914.12</ele>
        <time>2022-06-28T14:24:56Z</time>
      </trkpt>
      <trkpt lat="45.03476" lon="3.05611">
        <ele>914.23</ele>
        <time>2022-06-28T14:24:57Z</time>
      </trkpt>
      <trkpt lat="45.03464" lon="3.05612">
        <ele>914.52</ele>
        <time>2022-06-28T14:25:00Z</time>
      </trkpt>
      <trkpt lat="45.03459" lon="3.05612">
        <ele>914.59</ele>
        <time>2022-06-28T14:25:01Z</time>
      </trkpt>
      <trkpt lat="45.03404" lon="3.05606">
        <ele>915.1</ele>
        <time>2022-06-28T14:25:15Z</time>
      </trkpt>
      <trkpt lat="45.03356" lon="3.05603">
        <ele>916.76</ele>
        <time>2022-06-28T14:25:30Z</time>
      </trkpt>
      <trkpt lat="45.03297" lon="3.05578">
        <ele>918.74</ele>
        <time>2022-06-28T14:25:50Z</time>
      </trkpt>
      <trkpt lat="45.03244" lon="3.05535">
        <ele>920.06</ele>
        <time>2022-06-28T14:26:08Z</time>
      </trkpt>
      <trkpt lat="45.03199" lon="3.05466">
        <ele>918.97</ele>
        <time>2022-06-28T14:26:23Z</time>
      </trkpt>
      <trkpt lat="45.03158" lon="3.05384">
        <ele>919.17</ele>
        <time>2022-06-28T14:26:40Z</time>
      </trkpt>
      <trkpt lat="45.03128" lon="3.05331">
        <ele>921.57</ele>
        <time>2022-06-28T14:26:55Z</time>
      </trkpt>
      <trkpt lat="45.03088" lon="3.0526">
        <ele>918.79</ele>
        <time>2022-06-28T14:27:04Z</time>
      </trkpt>
      <trkpt lat="45.03084" lon="3.05249">
        <ele>918.12</ele>
        <time>2022-06-28T14:27:05Z</time>
      </trkpt>
      <trkpt lat="45.03082" lon="3.05238">
        <ele>917.4</ele>
        <time>2022-06-28T14:27:06Z</time>
      </trkpt>
      <trkpt lat="45.03081" lon="3.05229">
        <ele>915.86</ele>
        <time>2022-06-28T14:27:07Z</time>
      </trkpt>
      <trkpt lat="45.0308" lon="3.05218">
        <ele>915.13</ele>
        <time>2022-06-28T14:27:08Z</time>
      </trkpt>
      <trkpt lat="45.0308" lon="3.05206">
        <ele>914.44</ele>
        <time>2022-06-28T14:27:09Z</time>
      </trkpt>
      <trkpt lat="45.03074" lon="3.05149">
        <ele>910.95</ele>
        <time>2022-06-28T14:27:14Z</time>
      </trkpt>
      <trkpt lat="45.03072" lon="3.05139">
        <ele>910.53</ele>
        <time>2022-06-28T14:27:15Z</time>
      </trkpt>
      <trkpt lat="45.03069" lon="3.0513">
        <ele>910.21</ele>
        <time>2022-06-28T14:27:16Z</time>
      </trkpt>
      <trkpt lat="45.03065" lon="3.05122">
        <ele>909.96</ele>
        <time>2022-06-28T14:27:17Z</time>
      </trkpt>
      <trkpt lat="45.03062" lon="3.05115">
        <ele>909.8</ele>
        <time>2022-06-28T14:27:18Z</time>
      </trkpt>
      <trkpt lat="45.03058" lon="3.05109">
        <ele>909.71</ele>
        <time>2022-06-28T14:27:19Z</time>
      </trkpt>
      <trkpt lat="45.03048" lon="3.05092">
        <ele>909.67</ele>
        <time>2022-06-28T14:27:22Z</time>
      </trkpt>
      <trkpt lat="45.03042" lon="3.05083">
        <ele>909.77</ele>
        <time>2022-06-28T14:27:24Z</time>
      </trkpt>
      <trkpt lat="45.03021" lon="3.05027">
        <ele>911.76</ele>
        <time>2022-06-28T14:27:37Z</time>
      </trkpt>
      <trkpt lat="45.03012" lon="3.04962">
        <ele>914.86</ele>
        <time>2022-06-28T14:27:51Z</time>
      </trkpt>
      <trkpt lat="45.03004" lon="3.04896">
        <ele>917.79</ele>
        <time>2022-06-28T14:28:05Z</time>
      </trkpt>
      <trkpt lat="45.02989" lon="3.04825">
        <ele>920.09</ele>
        <time>2022-06-28T14:28:21Z</time>
      </trkpt>
      <trkpt lat="45.02986" lon="3.04773">
        <ele>923.21</ele>
        <time>2022-06-28T14:28:33Z</time>
      </trkpt>
      <trkpt lat="45.02981" lon="3.04717">
        <ele>925.88</ele>
        <time>2022-06-28T14:28:46Z</time>
      </trkpt>
      <trkpt lat="45.02977" lon="3.04675">
        <ele>929.01</ele>
        <time>2022-06-28T14:28:57Z</time>
      </trkpt>
      <trkpt lat="45.02969" lon="3.04641">
        <ele>932.16</ele>
        <time>2022-06-28T14:29:08Z</time>
      </trkpt>
      <trkpt lat="45.02955" lon="3.04616">
        <ele>935.5</ele>
        <time>2022-06-28T14:29:18Z</time>
      </trkpt>
      <trkpt lat="45.02933" lon="3.04584">
        <ele>938.73</ele>
        <time>2022-06-28T14:29:30Z</time>
      </trkpt>
      <trkpt lat="45.02912" lon="3.04555">
        <ele>941.73</ele>
        <time>2022-06-28T14:29:42Z</time>
      </trkpt>
      <trkpt lat="45.02886" lon="3.04512">
        <ele>944.83</ele>
        <time>2022-06-28T14:29:57Z</time>
      </trkpt>
      <trkpt lat="45.02852" lon="3.04472">
        <ele>948.01</ele>
        <time>2022-06-28T14:30:13Z</time>
      </trkpt>
      <trkpt lat="45.02821" lon="3.04459">
        <ele>951.04</ele>
        <time>2022-06-28T14:30:25Z</time>
      </trkpt>
      <trkpt lat="45.02792" lon="3.04435">
        <ele>954.12</ele>
        <time>2022-06-28T14:30:38Z</time>
      </trkpt>
      <trkpt lat="45.02776" lon="3.04394">
        <ele>957.37</ele>
        <time>2022-06-28T14:30:51Z</time>
      </trkpt>
      <trkpt lat="45.0276" lon="3.04361">
        <ele>960.62</ele>
        <time>2022-06-28T14:31:02Z</time>
      </trkpt>
      <trkpt lat="45.02722" lon="3.04366">
        <ele>961.98</ele>
        <time>2022-06-28T14:31:13Z</time>
      </trkpt>
      <trkpt lat="45.02699" lon="3.04382">
        <ele>961.32</ele>
        <time>2022-06-28T14:31:18Z</time>
      </trkpt>
      <trkpt lat="45.02658" lon="3.04415">
        <ele>960.62</ele>
        <time>2022-06-28T14:31:29Z</time>
      </trkpt>
      <trkpt lat="45.02654" lon="3.04417">
        <ele>960.66</ele>
        <time>2022-06-28T14:31:30Z</time>
      </trkpt>
      <trkpt lat="45.0265" lon="3.04418">
        <ele>960.68</ele>
        <time>2022-06-28T14:31:31Z</time>
      </trkpt>
      <trkpt lat="45.02646" lon="3.04417">
        <ele>960.76</ele>
        <time>2022-06-28T14:31:32Z</time>
      </trkpt>
      <trkpt lat="45.02642" lon="3.04415">
        <ele>960.91</ele>
        <time>2022-06-28T14:31:33Z</time>
      </trkpt>
      <trkpt lat="45.0264" lon="3.0441">
        <ele>961.12</ele>
        <time>2022-06-28T14:31:34Z</time>
      </trkpt>
      <trkpt lat="45.0264" lon="3.04404">
        <ele>961.36</ele>
        <time>2022-06-28T14:31:35Z</time>
      </trkpt>
      <trkpt lat="45.02639" lon="3.04398">
        <ele>961.63</ele>
        <time>2022-06-28T14:31:36Z</time>
      </trkpt>
      <trkpt lat="45.02639" lon="3.04393">
        <ele>961.91</ele>
        <time>2022-06-28T14:31:37Z</time>
      </trkpt>
      <trkpt lat="45.0264" lon="3.04387">
        <ele>962.19</ele>
        <time>2022-06-28T14:31:38Z</time>
      </trkpt>
      <trkpt lat="45.02646" lon="3.04341">
        <ele>965.24</ele>
        <time>2022-06-28T14:31:47Z</time>
      </trkpt>
      <trkpt lat="45.02668" lon="3.04293">
        <ele>968.25</ele>
        <time>2022-06-28T14:31:58Z</time>
      </trkpt>
      <trkpt lat="45.02709" lon="3.04261">
        <ele>971.27</ele>
        <time>2022-06-28T14:32:11Z</time>
      </trkpt>
      <trkpt lat="45.02736" lon="3.04254">
        <ele>974.43</ele>
        <time>2022-06-28T14:32:20Z</time>
      </trkpt>
      <trkpt lat="45.02759" lon="3.04241">
        <ele>977.59</ele>
        <time>2022-06-28T14:32:29Z</time>
      </trkpt>
      <trkpt lat="45.02783" lon="3.04229">
        <ele>980.73</ele>
        <time>2022-06-28T14:32:39Z</time>
      </trkpt>
      <trkpt lat="45.02824" lon="3.04202">
        <ele>983.78</ele>
        <time>2022-06-28T14:32:55Z</time>
      </trkpt>
      <trkpt lat="45.02869" lon="3.04166">
        <ele>986.84</ele>
        <time>2022-06-28T14:33:12Z</time>
      </trkpt>
      <trkpt lat="45.02874" lon="3.04118">
        <ele>989.15</ele>
        <time>2022-06-28T14:33:23Z</time>
      </trkpt>
      <trkpt lat="45.02868" lon="3.04075">
        <ele>992.34</ele>
        <time>2022-06-28T14:33:32Z</time>
      </trkpt>
      <trkpt lat="45.02866" lon="3.04046">
        <ele>995.41</ele>
        <time>2022-06-28T14:33:42Z</time>
      </trkpt>
      <trkpt lat="45.02866" lon="3.04046">
        <ele>995.81</ele>
        <time>2022-06-28T14:33:44Z</time>
      </trkpt>
      <trkpt lat="45.02866" lon="3.0404">
        <ele>995.74</ele>
        <time>2022-06-28T14:36:06Z</time>
      </trkpt>
      <trkpt lat="45.02866" lon="3.04032">
        <ele>995.85</ele>
        <time>2022-06-28T14:36:10Z</time>
      </trkpt>
      <trkpt lat="45.02878" lon="3.0399">
        <ele>996.67</ele>
        <time>2022-06-28T14:36:20Z</time>
      </trkpt>
      <trkpt lat="45.02909" lon="3.03885">
        <ele>998.13</ele>
        <time>2022-06-28T14:36:37Z</time>
      </trkpt>
      <trkpt lat="45.02911" lon="3.03878">
        <ele>998.22</ele>
        <time>2022-06-28T14:36:38Z</time>
      </trkpt>
      <trkpt lat="45.02912" lon="3.03871">
        <ele>998.3</ele>
        <time>2022-06-28T14:36:39Z</time>
      </trkpt>
      <trkpt lat="45.02912" lon="3.03864">
        <ele>998.36</ele>
        <time>2022-06-28T14:36:40Z</time>
      </trkpt>
      <trkpt lat="45.02911" lon="3.03857">
        <ele>998.44</ele>
        <time>2022-06-28T14:36:41Z</time>
      </trkpt>
      <trkpt lat="45.02911" lon="3.03851">
        <ele>998.51</ele>
        <time>2022-06-28T14:36:42Z</time>
      </trkpt>
      <trkpt lat="45.02909" lon="3.03845">
        <ele>998.56</ele>
        <time>2022-06-28T14:36:43Z</time>
      </trkpt>
      <trkpt lat="45.029" lon="3.03794">
        <ele>999.2</ele>
        <time>2022-06-28T14:36:55Z</time>
      </trkpt>
      <trkpt lat="45.02884" lon="3.03703">
        <ele>999.07</ele>
        <time>2022-06-28T14:37:09Z</time>
      </trkpt>
      <trkpt lat="45.02873" lon="3.03592">
        <ele>997.5</ele>
        <time>2022-06-28T14:37:22Z</time>
      </trkpt>
      <trkpt lat="45.0288" lon="3.03492">
        <ele>995.65</ele>
        <time>2022-06-28T14:37:33Z</time>
      </trkpt>
      <trkpt lat="45.02883" lon="3.03483">
        <ele>995.45</ele>
        <time>2022-06-28T14:37:34Z</time>
      </trkpt>
      <trkpt lat="45.02886" lon="3.03474">
        <ele>995.23</ele>
        <time>2022-06-28T14:37:35Z</time>
      </trkpt>
      <trkpt lat="45.02889" lon="3.03466">
        <ele>994.74</ele>
        <time>2022-06-28T14:37:36Z</time>
      </trkpt>
      <trkpt lat="45.02893" lon="3.03459">
        <ele>994.49</ele>
        <time>2022-06-28T14:37:37Z</time>
      </trkpt>
      <trkpt lat="45.02898" lon="3.03452">
        <ele>994.24</ele>
        <time>2022-06-28T14:37:38Z</time>
      </trkpt>
      <trkpt lat="45.02903" lon="3.03445">
        <ele>994</ele>
        <time>2022-06-28T14:37:39Z</time>
      </trkpt>
      <trkpt lat="45.02908" lon="3.03438">
        <ele>993.77</ele>
        <time>2022-06-28T14:37:40Z</time>
      </trkpt>
      <trkpt lat="45.02913" lon="3.03433">
        <ele>993.56</ele>
        <time>2022-06-28T14:37:41Z</time>
      </trkpt>
      <trkpt lat="45.02998" lon="3.03366">
        <ele>990.42</ele>
        <time>2022-06-28T14:37:55Z</time>
      </trkpt>
      <trkpt lat="45.03077" lon="3.03336">
        <ele>987.91</ele>
        <time>2022-06-28T14:38:08Z</time>
      </trkpt>
      <trkpt lat="45.03083" lon="3.03337">
        <ele>987.81</ele>
        <time>2022-06-28T14:38:09Z</time>
      </trkpt>
      <trkpt lat="45.03088" lon="3.03339">
        <ele>987.71</ele>
        <time>2022-06-28T14:38:10Z</time>
      </trkpt>
      <trkpt lat="45.03161" lon="3.03395">
        <ele>985.58</ele>
        <time>2022-06-28T14:38:25Z</time>
      </trkpt>
      <trkpt lat="45.03166" lon="3.03396">
        <ele>985.48</ele>
        <time>2022-06-28T14:38:26Z</time>
      </trkpt>
      <trkpt lat="45.03171" lon="3.03396">
        <ele>985.39</ele>
        <time>2022-06-28T14:38:27Z</time>
      </trkpt>
      <trkpt lat="45.03175" lon="3.03394">
        <ele>985.31</ele>
        <time>2022-06-28T14:38:28Z</time>
      </trkpt>
      <trkpt lat="45.03178" lon="3.03391">
        <ele>985.23</ele>
        <time>2022-06-28T14:38:29Z</time>
      </trkpt>
      <trkpt lat="45.03182" lon="3.03387">
        <ele>985.17</ele>
        <time>2022-06-28T14:38:30Z</time>
      </trkpt>
      <trkpt lat="45.032" lon="3.03365">
        <ele>985</ele>
        <time>2022-06-28T14:38:35Z</time>
      </trkpt>
      <trkpt lat="45.03203" lon="3.03359">
        <ele>984.97</ele>
        <time>2022-06-28T14:38:36Z</time>
      </trkpt>
      <trkpt lat="45.03218" lon="3.03319">
        <ele>984.56</ele>
        <time>2022-06-28T14:38:42Z</time>
      </trkpt>
      <trkpt lat="45.03219" lon="3.03311">
        <ele>984.42</ele>
        <time>2022-06-28T14:38:43Z</time>
      </trkpt>
      <trkpt lat="45.03219" lon="3.03303">
        <ele>984.23</ele>
        <time>2022-06-28T14:38:44Z</time>
      </trkpt>
      <trkpt lat="45.03219" lon="3.03295">
        <ele>984.04</ele>
        <time>2022-06-28T14:38:45Z</time>
      </trkpt>
      <trkpt lat="45.03219" lon="3.03288">
        <ele>983.85</ele>
        <time>2022-06-28T14:38:46Z</time>
      </trkpt>
      <trkpt lat="45.03218" lon="3.0328">
        <ele>983.67</ele>
        <time>2022-06-28T14:38:47Z</time>
      </trkpt>
      <trkpt lat="45.03219" lon="3.03274">
        <ele>983.53</ele>
        <time>2022-06-28T14:38:48Z</time>
      </trkpt>
      <trkpt lat="45.0322" lon="3.03261">
        <ele>983.08</ele>
        <time>2022-06-28T14:38:51Z</time>
      </trkpt>
      <trkpt lat="45.03219" lon="3.03258">
        <ele>983.02</ele>
        <time>2022-06-28T14:38:52Z</time>
      </trkpt>
      <trkpt lat="45.03217" lon="3.03255">
        <ele>982.99</ele>
        <time>2022-06-28T14:38:53Z</time>
      </trkpt>
      <trkpt lat="45.03216" lon="3.03253">
        <ele>983</ele>
        <time>2022-06-28T14:38:54Z</time>
      </trkpt>
      <trkpt lat="45.03215" lon="3.03251">
        <ele>983.03</ele>
        <time>2022-06-28T14:38:55Z</time>
      </trkpt>
      <trkpt lat="45.03214" lon="3.03248">
        <ele>983.08</ele>
        <time>2022-06-28T14:38:56Z</time>
      </trkpt>
      <trkpt lat="45.03213" lon="3.03245">
        <ele>983.11</ele>
        <time>2022-06-28T14:38:57Z</time>
      </trkpt>
      <trkpt lat="45.03204" lon="3.0323">
        <ele>983.25</ele>
        <time>2022-06-28T14:39:05Z</time>
      </trkpt>
      <trkpt lat="45.03189" lon="3.03206">
        <ele>983.92</ele>
        <time>2022-06-28T14:39:21Z</time>
      </trkpt>
      <trkpt lat="45.03171" lon="3.03179">
        <ele>984.76</ele>
        <time>2022-06-28T14:39:34Z</time>
      </trkpt>
      <trkpt lat="45.0317" lon="3.03179">
        <ele>984.91</ele>
        <time>2022-06-28T14:39:37Z</time>
      </trkpt>
      <trkpt lat="45.03166" lon="3.03173">
        <ele>985.33</ele>
        <time>2022-06-28T14:40:27Z</time>
      </trkpt>
      <trkpt lat="45.03158" lon="3.03164">
        <ele>986.45</ele>
        <time>2022-06-28T14:40:42Z</time>
      </trkpt>
      <trkpt lat="45.03155" lon="3.03158">
        <ele>986.35</ele>
        <time>2022-06-28T14:40:50Z</time>
      </trkpt>
      <trkpt lat="45.03146" lon="3.0314">
        <ele>986.73</ele>
        <time>2022-06-28T14:41:06Z</time>
      </trkpt>
      <trkpt lat="45.03139" lon="3.03129">
        <ele>986.96</ele>
        <time>2022-06-28T14:41:19Z</time>
      </trkpt>
      <trkpt lat="45.03132" lon="3.03119">
        <ele>986.89</ele>
        <time>2022-06-28T14:41:33Z</time>
      </trkpt>
      <trkpt lat="45.0313" lon="3.03115">
        <ele>986.73</ele>
        <time>2022-06-28T14:41:41Z</time>
      </trkpt>
      <trkpt lat="45.03124" lon="3.03101">
        <ele>986.67</ele>
        <time>2022-06-28T14:41:54Z</time>
      </trkpt>
      <trkpt lat="45.03117" lon="3.03084">
        <ele>986.79</ele>
        <time>2022-06-28T14:42:04Z</time>
      </trkpt>
      <trkpt lat="45.03106" lon="3.03043">
        <ele>987.32</ele>
        <time>2022-06-28T14:42:16Z</time>
      </trkpt>
      <trkpt lat="45.031" lon="3.0303">
        <ele>987.36</ele>
        <time>2022-06-28T14:42:20Z</time>
      </trkpt>
      <trkpt lat="45.03076" lon="3.02991">
        <ele>988.09</ele>
        <time>2022-06-28T14:42:33Z</time>
      </trkpt>
      <trkpt lat="45.03068" lon="3.02978">
        <ele>988.23</ele>
        <time>2022-06-28T14:42:38Z</time>
      </trkpt>
      <trkpt lat="45.03048" lon="3.02939">
        <ele>989.1</ele>
        <time>2022-06-28T14:42:52Z</time>
      </trkpt>
      <trkpt lat="45.03025" lon="3.02899">
        <ele>989.68</ele>
        <time>2022-06-28T14:43:06Z</time>
      </trkpt>
      <trkpt lat="45.03002" lon="3.02864">
        <ele>990.69</ele>
        <time>2022-06-28T14:43:20Z</time>
      </trkpt>
      <trkpt lat="45.0298" lon="3.02829">
        <ele>991.05</ele>
        <time>2022-06-28T14:43:33Z</time>
      </trkpt>
      <trkpt lat="45.0295" lon="3.02791">
        <ele>992</ele>
        <time>2022-06-28T14:43:49Z</time>
      </trkpt>
      <trkpt lat="45.02932" lon="3.0276">
        <ele>992.5</ele>
        <time>2022-06-28T14:44:01Z</time>
      </trkpt>
      <trkpt lat="45.0292" lon="3.02727">
        <ele>994.61</ele>
        <time>2022-06-28T14:44:15Z</time>
      </trkpt>
      <trkpt lat="45.0292" lon="3.02727">
        <ele>994.81</ele>
        <time>2022-06-28T14:44:17Z</time>
      </trkpt>
      <trkpt lat="45.0293" lon="3.02723">
        <ele>995.7</ele>
        <time>2022-06-28T14:44:37Z</time>
      </trkpt>
      <trkpt lat="45.02933" lon="3.02724">
        <ele>995.76</ele>
        <time>2022-06-28T14:44:38Z</time>
      </trkpt>
      <trkpt lat="45.02937" lon="3.02724">
        <ele>995.77</ele>
        <time>2022-06-28T14:44:39Z</time>
      </trkpt>
      <trkpt lat="45.0295" lon="3.02723">
        <ele>995.72</ele>
        <time>2022-06-28T14:44:42Z</time>
      </trkpt>
      <trkpt lat="45.02954" lon="3.02721">
        <ele>995.61</ele>
        <time>2022-06-28T14:44:43Z</time>
      </trkpt>
      <trkpt lat="45.03002" lon="3.02702">
        <ele>994.83</ele>
        <time>2022-06-28T14:44:54Z</time>
      </trkpt>
      <trkpt lat="45.03011" lon="3.02697">
        <ele>994.85</ele>
        <time>2022-06-28T14:44:56Z</time>
      </trkpt>
      <trkpt lat="45.03094" lon="3.02661">
        <ele>995.79</ele>
        <time>2022-06-28T14:45:15Z</time>
      </trkpt>
      <trkpt lat="45.03189" lon="3.0262">
        <ele>995.96</ele>
        <time>2022-06-28T14:45:34Z</time>
      </trkpt>
      <trkpt lat="45.03281" lon="3.02597">
        <ele>992.89</ele>
        <time>2022-06-28T14:45:49Z</time>
      </trkpt>
      <trkpt lat="45.03372" lon="3.02616">
        <ele>990.85</ele>
        <time>2022-06-28T14:46:04Z</time>
      </trkpt>
      <trkpt lat="45.03462" lon="3.02649">
        <ele>987.83</ele>
        <time>2022-06-28T14:46:19Z</time>
      </trkpt>
      <trkpt lat="45.03528" lon="3.02671">
        <ele>984.72</ele>
        <time>2022-06-28T14:46:28Z</time>
      </trkpt>
      <trkpt lat="45.03536" lon="3.02674">
        <ele>984.19</ele>
        <time>2022-06-28T14:46:29Z</time>
      </trkpt>
      <trkpt lat="45.03578" lon="3.02685">
        <ele>981.09</ele>
        <time>2022-06-28T14:46:34Z</time>
      </trkpt>
      <trkpt lat="45.03587" lon="3.02687">
        <ele>980.58</ele>
        <time>2022-06-28T14:46:35Z</time>
      </trkpt>
      <trkpt lat="45.03596" lon="3.02687">
        <ele>980.06</ele>
        <time>2022-06-28T14:46:36Z</time>
      </trkpt>
      <trkpt lat="45.03605" lon="3.02686">
        <ele>979.55</ele>
        <time>2022-06-28T14:46:37Z</time>
      </trkpt>
      <trkpt lat="45.03615" lon="3.02683">
        <ele>979.03</ele>
        <time>2022-06-28T14:46:38Z</time>
      </trkpt>
      <trkpt lat="45.03624" lon="3.02679">
        <ele>978.47</ele>
        <time>2022-06-28T14:46:39Z</time>
      </trkpt>
      <trkpt lat="45.03658" lon="3.02664">
        <ele>975.44</ele>
        <time>2022-06-28T14:46:44Z</time>
      </trkpt>
      <trkpt lat="45.03662" lon="3.02657">
        <ele>974.69</ele>
        <time>2022-06-28T14:46:46Z</time>
      </trkpt>
      <trkpt lat="45.03661" lon="3.02652">
        <ele>974.47</ele>
        <time>2022-06-28T14:46:47Z</time>
      </trkpt>
      <trkpt lat="45.03659" lon="3.02647">
        <ele>974.41</ele>
        <time>2022-06-28T14:46:48Z</time>
      </trkpt>
      <trkpt lat="45.03657" lon="3.02643">
        <ele>974.44</ele>
        <time>2022-06-28T14:46:49Z</time>
      </trkpt>
      <trkpt lat="45.03654" lon="3.02639">
        <ele>974.5</ele>
        <time>2022-06-28T14:46:50Z</time>
      </trkpt>
      <trkpt lat="45.03651" lon="3.02635">
        <ele>974.57</ele>
        <time>2022-06-28T14:46:51Z</time>
      </trkpt>
      <trkpt lat="45.03636" lon="3.02616">
        <ele>974.77</ele>
        <time>2022-06-28T14:46:55Z</time>
      </trkpt>
      <trkpt lat="45.03634" lon="3.0261">
        <ele>974.8</ele>
        <time>2022-06-28T14:46:56Z</time>
      </trkpt>
      <trkpt lat="45.03633" lon="3.02604">
        <ele>974.84</ele>
        <time>2022-06-28T14:46:57Z</time>
      </trkpt>
      <trkpt lat="45.03636" lon="3.02599">
        <ele>974.87</ele>
        <time>2022-06-28T14:46:58Z</time>
      </trkpt>
      <trkpt lat="45.03639" lon="3.02595">
        <ele>974.92</ele>
        <time>2022-06-28T14:46:59Z</time>
      </trkpt>
      <trkpt lat="45.03643" lon="3.02592">
        <ele>975.04</ele>
        <time>2022-06-28T14:47:00Z</time>
      </trkpt>
      <trkpt lat="45.03648" lon="3.02589">
        <ele>975.18</ele>
        <time>2022-06-28T14:47:01Z</time>
      </trkpt>
      <trkpt lat="45.03664" lon="3.02574">
        <ele>976.77</ele>
        <time>2022-06-28T14:47:06Z</time>
      </trkpt>
      <trkpt lat="45.03684" lon="3.02542">
        <ele>980.22</ele>
        <time>2022-06-28T14:47:13Z</time>
      </trkpt>
      <trkpt lat="45.03695" lon="3.02525">
        <ele>982.47</ele>
        <time>2022-06-28T14:47:17Z</time>
      </trkpt>
      <trkpt lat="45.03699" lon="3.02521">
        <ele>982.99</ele>
        <time>2022-06-28T14:47:18Z</time>
      </trkpt>
      <trkpt lat="45.03702" lon="3.02517">
        <ele>984.08</ele>
        <time>2022-06-28T14:47:19Z</time>
      </trkpt>
      <trkpt lat="45.03726" lon="3.02488">
        <ele>987.13</ele>
        <time>2022-06-28T14:47:26Z</time>
      </trkpt>
      <trkpt lat="45.03729" lon="3.02485">
        <ele>987.38</ele>
        <time>2022-06-28T14:47:27Z</time>
      </trkpt>
      <trkpt lat="45.03733" lon="3.02483">
        <ele>987.61</ele>
        <time>2022-06-28T14:47:28Z</time>
      </trkpt>
      <trkpt lat="45.03754" lon="3.02474">
        <ele>988.65</ele>
        <time>2022-06-28T14:47:33Z</time>
      </trkpt>
      <trkpt lat="45.03767" lon="3.02472">
        <ele>988.95</ele>
        <time>2022-06-28T14:47:36Z</time>
      </trkpt>
      <trkpt lat="45.03771" lon="3.0247">
        <ele>989.03</ele>
        <time>2022-06-28T14:47:37Z</time>
      </trkpt>
      <trkpt lat="45.03774" lon="3.02467">
        <ele>989.1</ele>
        <time>2022-06-28T14:47:38Z</time>
      </trkpt>
      <trkpt lat="45.03777" lon="3.02463">
        <ele>989.15</ele>
        <time>2022-06-28T14:47:39Z</time>
      </trkpt>
      <trkpt lat="45.03779" lon="3.02457">
        <ele>989.23</ele>
        <time>2022-06-28T14:47:40Z</time>
      </trkpt>
      <trkpt lat="45.0378" lon="3.02451">
        <ele>989.29</ele>
        <time>2022-06-28T14:47:41Z</time>
      </trkpt>
      <trkpt lat="45.03799" lon="3.02341">
        <ele>989.67</ele>
        <time>2022-06-28T14:47:56Z</time>
      </trkpt>
      <trkpt lat="45.03801" lon="3.02334">
        <ele>989.68</ele>
        <time>2022-06-28T14:47:57Z</time>
      </trkpt>
      <trkpt lat="45.03802" lon="3.0233">
        <ele>989.72</ele>
        <time>2022-06-28T14:47:58Z</time>
      </trkpt>
      <trkpt lat="45.03802" lon="3.02326">
        <ele>989.78</ele>
        <time>2022-06-28T14:47:59Z</time>
      </trkpt>
      <trkpt lat="45.03801" lon="3.02325">
        <ele>989.82</ele>
        <time>2022-06-28T14:48:00Z</time>
      </trkpt>
      <trkpt lat="45.03797" lon="3.02333">
        <ele>989.85</ele>
        <time>2022-06-28T14:48:03Z</time>
      </trkpt>
      <trkpt lat="45.03796" lon="3.02337">
        <ele>989.85</ele>
        <time>2022-06-28T14:48:04Z</time>
      </trkpt>
      <trkpt lat="45.03793" lon="3.0234">
        <ele>989.84</ele>
        <time>2022-06-28T14:48:05Z</time>
      </trkpt>
      <trkpt lat="45.03786" lon="3.0234">
        <ele>989.78</ele>
        <time>2022-06-28T14:48:07Z</time>
      </trkpt>
      <trkpt lat="45.03782" lon="3.02337">
        <ele>989.79</ele>
        <time>2022-06-28T14:48:08Z</time>
      </trkpt>
      <trkpt lat="45.03778" lon="3.02333">
        <ele>989.85</ele>
        <time>2022-06-28T14:48:09Z</time>
      </trkpt>
      <trkpt lat="45.03774" lon="3.02329">
        <ele>989.91</ele>
        <time>2022-06-28T14:48:10Z</time>
      </trkpt>
      <trkpt lat="45.03704" lon="3.02263">
        <ele>990.6</ele>
        <time>2022-06-28T14:48:25Z</time>
      </trkpt>
      <trkpt lat="45.03648" lon="3.02177">
        <ele>993.06</ele>
        <time>2022-06-28T14:48:40Z</time>
      </trkpt>
      <trkpt lat="45.03571" lon="3.02074">
        <ele>994.34</ele>
        <time>2022-06-28T14:48:58Z</time>
      </trkpt>
      <trkpt lat="45.03493" lon="3.02022">
        <ele>994.64</ele>
        <time>2022-06-28T14:49:12Z</time>
      </trkpt>
      <trkpt lat="45.03392" lon="3.02012">
        <ele>994.09</ele>
        <time>2022-06-28T14:49:28Z</time>
      </trkpt>
      <trkpt lat="45.03283" lon="3.01992">
        <ele>995.04</ele>
        <time>2022-06-28T14:49:46Z</time>
      </trkpt>
      <trkpt lat="45.03189" lon="3.01974">
        <ele>996.35</ele>
        <time>2022-06-28T14:50:02Z</time>
      </trkpt>
      <trkpt lat="45.0315" lon="3.01981">
        <ele>997.48</ele>
        <time>2022-06-28T14:50:09Z</time>
      </trkpt>
      <trkpt lat="45.03144" lon="3.0198">
        <ele>997.79</ele>
        <time>2022-06-28T14:50:10Z</time>
      </trkpt>
      <trkpt lat="45.03139" lon="3.01977">
        <ele>997.92</ele>
        <time>2022-06-28T14:50:11Z</time>
      </trkpt>
      <trkpt lat="45.03134" lon="3.01974">
        <ele>998.04</ele>
        <time>2022-06-28T14:50:12Z</time>
      </trkpt>
      <trkpt lat="45.03129" lon="3.0197">
        <ele>998.16</ele>
        <time>2022-06-28T14:50:13Z</time>
      </trkpt>
      <trkpt lat="45.03055" lon="3.01904">
        <ele>999.4</ele>
        <time>2022-06-28T14:50:28Z</time>
      </trkpt>
      <trkpt lat="45.02945" lon="3.01857">
        <ele>999.84</ele>
        <time>2022-06-28T14:50:47Z</time>
      </trkpt>
      <trkpt lat="45.02911" lon="3.01835">
        <ele>999.87</ele>
        <time>2022-06-28T14:50:53Z</time>
      </trkpt>
      <trkpt lat="45.02907" lon="3.0183">
        <ele>999.82</ele>
        <time>2022-06-28T14:50:54Z</time>
      </trkpt>
      <trkpt lat="45.02903" lon="3.01823">
        <ele>999.8</ele>
        <time>2022-06-28T14:50:55Z</time>
      </trkpt>
      <trkpt lat="45.02901" lon="3.01815">
        <ele>999.8</ele>
        <time>2022-06-28T14:50:56Z</time>
      </trkpt>
      <trkpt lat="45.02899" lon="3.01806">
        <ele>999.8</ele>
        <time>2022-06-28T14:50:57Z</time>
      </trkpt>
      <trkpt lat="45.02898" lon="3.01797">
        <ele>999.82</ele>
        <time>2022-06-28T14:50:58Z</time>
      </trkpt>
      <trkpt lat="45.02882" lon="3.01722">
        <ele>999.83</ele>
        <time>2022-06-28T14:51:07Z</time>
      </trkpt>
      <trkpt lat="45.02879" lon="3.01714">
        <ele>999.73</ele>
        <time>2022-06-28T14:51:08Z</time>
      </trkpt>
      <trkpt lat="45.02871" lon="3.01702">
        <ele>999.63</ele>
        <time>2022-06-28T14:51:10Z</time>
      </trkpt>
      <trkpt lat="45.02867" lon="3.01696">
        <ele>999.57</ele>
        <time>2022-06-28T14:51:11Z</time>
      </trkpt>
      <trkpt lat="45.02861" lon="3.01691">
        <ele>999.55</ele>
        <time>2022-06-28T14:51:12Z</time>
      </trkpt>
      <trkpt lat="45.02856" lon="3.01687">
        <ele>999.55</ele>
        <time>2022-06-28T14:51:13Z</time>
      </trkpt>
      <trkpt lat="45.0285" lon="3.01683">
        <ele>999.52</ele>
        <time>2022-06-28T14:51:14Z</time>
      </trkpt>
      <trkpt lat="45.02814" lon="3.0167">
        <ele>999.4</ele>
        <time>2022-06-28T14:51:20Z</time>
      </trkpt>
      <trkpt lat="45.02808" lon="3.01666">
        <ele>999.4</ele>
        <time>2022-06-28T14:51:21Z</time>
      </trkpt>
      <trkpt lat="45.02804" lon="3.01661">
        <ele>999.4</ele>
        <time>2022-06-28T14:51:22Z</time>
      </trkpt>
      <trkpt lat="45.028" lon="3.01653">
        <ele>999.39</ele>
        <time>2022-06-28T14:51:23Z</time>
      </trkpt>
      <trkpt lat="45.02797" lon="3.01645">
        <ele>999.41</ele>
        <time>2022-06-28T14:51:24Z</time>
      </trkpt>
      <trkpt lat="45.02794" lon="3.01637">
        <ele>999.4</ele>
        <time>2022-06-28T14:51:25Z</time>
      </trkpt>
      <trkpt lat="45.02792" lon="3.01629">
        <ele>999.37</ele>
        <time>2022-06-28T14:51:26Z</time>
      </trkpt>
      <trkpt lat="45.02767" lon="3.01562">
        <ele>999.49</ele>
        <time>2022-06-28T14:51:35Z</time>
      </trkpt>
      <trkpt lat="45.02745" lon="3.01494">
        <ele>1000.42</ele>
        <time>2022-06-28T14:51:45Z</time>
      </trkpt>
      <trkpt lat="45.02695" lon="3.01415">
        <ele>1003.55</ele>
        <time>2022-06-28T14:52:00Z</time>
      </trkpt>
      <trkpt lat="45.02689" lon="3.01406">
        <ele>1004.07</ele>
        <time>2022-06-28T14:52:02Z</time>
      </trkpt>
      <trkpt lat="45.02679" lon="3.01394">
        <ele>1004.99</ele>
        <time>2022-06-28T14:52:05Z</time>
      </trkpt>
      <trkpt lat="45.02656" lon="3.01356">
        <ele>1008.23</ele>
        <time>2022-06-28T14:52:14Z</time>
      </trkpt>
      <trkpt lat="45.02629" lon="3.01321">
        <ele>1011.33</ele>
        <time>2022-06-28T14:52:24Z</time>
      </trkpt>
      <trkpt lat="45.02596" lon="3.0127">
        <ele>1014.36</ele>
        <time>2022-06-28T14:52:37Z</time>
      </trkpt>
      <trkpt lat="45.02559" lon="3.01225">
        <ele>1017.44</ele>
        <time>2022-06-28T14:52:50Z</time>
      </trkpt>
      <trkpt lat="45.02528" lon="3.01178">
        <ele>1020.69</ele>
        <time>2022-06-28T14:53:03Z</time>
      </trkpt>
      <trkpt lat="45.02504" lon="3.011">
        <ele>1023.79</ele>
        <time>2022-06-28T14:53:18Z</time>
      </trkpt>
      <trkpt lat="45.02494" lon="3.01066">
        <ele>1024.37</ele>
        <time>2022-06-28T14:53:24Z</time>
      </trkpt>
      <trkpt lat="45.02471" lon="3.01013">
        <ele>1024.74</ele>
        <time>2022-06-28T14:53:38Z</time>
      </trkpt>
      <trkpt lat="45.02471" lon="3.01013">
        <ele>1024.78</ele>
        <time>2022-06-28T14:53:39Z</time>
      </trkpt>
      <trkpt lat="45.02467" lon="3.0101">
        <ele>1024.33</ele>
        <time>2022-06-28T14:54:24Z</time>
      </trkpt>
      <trkpt lat="45.02458" lon="3.00992">
        <ele>1024.36</ele>
        <time>2022-06-28T14:54:28Z</time>
      </trkpt>
      <trkpt lat="45.02457" lon="3.00986">
        <ele>1024.36</ele>
        <time>2022-06-28T14:54:29Z</time>
      </trkpt>
      <trkpt lat="45.02456" lon="3.0098">
        <ele>1024.35</ele>
        <time>2022-06-28T14:54:30Z</time>
      </trkpt>
      <trkpt lat="45.02456" lon="3.00974">
        <ele>1024.33</ele>
        <time>2022-06-28T14:54:31Z</time>
      </trkpt>
      <trkpt lat="45.02456" lon="3.00967">
        <ele>1024.32</ele>
        <time>2022-06-28T14:54:32Z</time>
      </trkpt>
      <trkpt lat="45.02453" lon="3.00829">
        <ele>1026.04</ele>
        <time>2022-06-28T14:54:52Z</time>
      </trkpt>
      <trkpt lat="45.02443" lon="3.00727">
        <ele>1029.07</ele>
        <time>2022-06-28T14:55:09Z</time>
      </trkpt>
      <trkpt lat="45.02417" lon="3.00644">
        <ele>1032.17</ele>
        <time>2022-06-28T14:55:25Z</time>
      </trkpt>
      <trkpt lat="45.02387" lon="3.00584">
        <ele>1035.24</ele>
        <time>2022-06-28T14:55:39Z</time>
      </trkpt>
      <trkpt lat="45.02375" lon="3.00523">
        <ele>1038.49</ele>
        <time>2022-06-28T14:55:52Z</time>
      </trkpt>
      <trkpt lat="45.02375" lon="3.00468">
        <ele>1041.56</ele>
        <time>2022-06-28T14:56:03Z</time>
      </trkpt>
      <trkpt lat="45.02371" lon="3.00421">
        <ele>1044.64</ele>
        <time>2022-06-28T14:56:14Z</time>
      </trkpt>
      <trkpt lat="45.02371" lon="3.00374">
        <ele>1047.79</ele>
        <time>2022-06-28T14:56:26Z</time>
      </trkpt>
      <trkpt lat="45.02353" lon="3.00357">
        <ele>1050.95</ele>
        <time>2022-06-28T14:56:36Z</time>
      </trkpt>
      <trkpt lat="45.02345" lon="3.00352">
        <ele>1052.5</ele>
        <time>2022-06-28T14:56:41Z</time>
      </trkpt>
      <trkpt lat="45.02343" lon="3.0035">
        <ele>1052.88</ele>
        <time>2022-06-28T14:56:42Z</time>
      </trkpt>
      <trkpt lat="45.02342" lon="3.00348">
        <ele>1053.22</ele>
        <time>2022-06-28T14:56:43Z</time>
      </trkpt>
      <trkpt lat="45.02321" lon="3.00329">
        <ele>1056.34</ele>
        <time>2022-06-28T14:56:54Z</time>
      </trkpt>
      <trkpt lat="45.02292" lon="3.00305">
        <ele>1059.5</ele>
        <time>2022-06-28T14:57:06Z</time>
      </trkpt>
      <trkpt lat="45.02261" lon="3.00276">
        <ele>1062.67</ele>
        <time>2022-06-28T14:57:18Z</time>
      </trkpt>
      <trkpt lat="45.02219" lon="3.00243">
        <ele>1065.7</ele>
        <time>2022-06-28T14:57:32Z</time>
      </trkpt>
      <trkpt lat="45.02194" lon="3.00195">
        <ele>1068.79</ele>
        <time>2022-06-28T14:57:44Z</time>
      </trkpt>
      <trkpt lat="45.02184" lon="3.00144">
        <ele>1071.95</ele>
        <time>2022-06-28T14:57:55Z</time>
      </trkpt>
      <trkpt lat="45.02176" lon="3.00094">
        <ele>1075</ele>
        <time>2022-06-28T14:58:06Z</time>
      </trkpt>
      <trkpt lat="45.0216" lon="3.00052">
        <ele>1078.17</ele>
        <time>2022-06-28T14:58:16Z</time>
      </trkpt>
      <trkpt lat="45.02147" lon="2.99991">
        <ele>1081.32</ele>
        <time>2022-06-28T14:58:30Z</time>
      </trkpt>
      <trkpt lat="45.02168" lon="2.99948">
        <ele>1084.25</ele>
        <time>2022-06-28T14:58:42Z</time>
      </trkpt>
      <trkpt lat="45.02198" lon="2.9991">
        <ele>1086.33</ele>
        <time>2022-06-28T14:58:54Z</time>
      </trkpt>
      <trkpt lat="45.02201" lon="2.99911">
        <ele>1086.4</ele>
        <time>2022-06-28T14:58:55Z</time>
      </trkpt>
      <trkpt lat="45.02203" lon="2.99914">
        <ele>1086.48</ele>
        <time>2022-06-28T14:58:56Z</time>
      </trkpt>
      <trkpt lat="45.02205" lon="2.99919">
        <ele>1086.55</ele>
        <time>2022-06-28T14:58:57Z</time>
      </trkpt>
      <trkpt lat="45.02205" lon="2.99923">
        <ele>1086.62</ele>
        <time>2022-06-28T14:58:58Z</time>
      </trkpt>
      <trkpt lat="45.02205" lon="2.99929">
        <ele>1086.64</ele>
        <time>2022-06-28T14:58:59Z</time>
      </trkpt>
      <trkpt lat="45.02205" lon="2.99934">
        <ele>1086.65</ele>
        <time>2022-06-28T14:59:00Z</time>
      </trkpt>
      <trkpt lat="45.02216" lon="2.99999">
        <ele>1088.15</ele>
        <time>2022-06-28T14:59:13Z</time>
      </trkpt>
      <trkpt lat="45.02219" lon="3.00001">
        <ele>1088.33</ele>
        <time>2022-06-28T14:59:14Z</time>
      </trkpt>
      <trkpt lat="45.02235" lon="3.00018">
        <ele>1089.11</ele>
        <time>2022-06-28T14:59:21Z</time>
      </trkpt>
      <trkpt lat="45.02238" lon="3.00018">
        <ele>1089.2</ele>
        <time>2022-06-28T14:59:22Z</time>
      </trkpt>
      <trkpt lat="45.0224" lon="3.00016">
        <ele>1089.28</ele>
        <time>2022-06-28T14:59:23Z</time>
      </trkpt>
      <trkpt lat="45.0224" lon="3.0001">
        <ele>1089.39</ele>
        <time>2022-06-28T14:59:25Z</time>
      </trkpt>
      <trkpt lat="45.02239" lon="3.00007">
        <ele>1089.43</ele>
        <time>2022-06-28T14:59:26Z</time>
      </trkpt>
      <trkpt lat="45.02237" lon="3.00003">
        <ele>1089.46</ele>
        <time>2022-06-28T14:59:27Z</time>
      </trkpt>
      <trkpt lat="45.02232" lon="2.99982">
        <ele>1089.38</ele>
        <time>2022-06-28T14:59:32Z</time>
      </trkpt>
      <trkpt lat="45.02234" lon="2.99979">
        <ele>1089.35</ele>
        <time>2022-06-28T14:59:33Z</time>
      </trkpt>
      <trkpt lat="45.02236" lon="2.99977">
        <ele>1089.33</ele>
        <time>2022-06-28T14:59:34Z</time>
      </trkpt>
      <trkpt lat="45.02239" lon="2.99976">
        <ele>1089.33</ele>
        <time>2022-06-28T14:59:35Z</time>
      </trkpt>
      <trkpt lat="45.02243" lon="2.99976">
        <ele>1089.35</ele>
        <time>2022-06-28T14:59:36Z</time>
      </trkpt>
      <trkpt lat="45.02246" lon="2.99975">
        <ele>1089.42</ele>
        <time>2022-06-28T14:59:37Z</time>
      </trkpt>
      <trkpt lat="45.02248" lon="2.99975">
        <ele>1089.5</ele>
        <time>2022-06-28T14:59:38Z</time>
      </trkpt>
      <trkpt lat="45.02251" lon="2.99973">
        <ele>1089.61</ele>
        <time>2022-06-28T14:59:39Z</time>
      </trkpt>
      <trkpt lat="45.02254" lon="2.9997">
        <ele>1089.77</ele>
        <time>2022-06-28T14:59:40Z</time>
      </trkpt>
      <trkpt lat="45.02257" lon="2.99967">
        <ele>1089.95</ele>
        <time>2022-06-28T14:59:41Z</time>
      </trkpt>
      <trkpt lat="45.0226" lon="2.99965">
        <ele>1090.11</ele>
        <time>2022-06-28T14:59:42Z</time>
      </trkpt>
      <trkpt lat="45.02271" lon="2.99965">
        <ele>1090.78</ele>
        <time>2022-06-28T14:59:46Z</time>
      </trkpt>
      <trkpt lat="45.02277" lon="2.99979">
        <ele>1092.49</ele>
        <time>2022-06-28T14:59:55Z</time>
      </trkpt>
      <trkpt lat="45.0228" lon="2.9997">
        <ele>1093.11</ele>
        <time>2022-06-28T15:02:20Z</time>
      </trkpt>
      <trkpt lat="45.02284" lon="2.99967">
        <ele>1092.73</ele>
        <time>2022-06-28T15:02:22Z</time>
      </trkpt>
      <trkpt lat="45.02286" lon="2.99965">
        <ele>1092.4</ele>
        <time>2022-06-28T15:02:23Z</time>
      </trkpt>
      <trkpt lat="45.02289" lon="2.99962">
        <ele>1092.02</ele>
        <time>2022-06-28T15:02:24Z</time>
      </trkpt>
      <trkpt lat="45.02292" lon="2.99957">
        <ele>1091.61</ele>
        <time>2022-06-28T15:02:25Z</time>
      </trkpt>
      <trkpt lat="45.02294" lon="2.99952">
        <ele>1091.11</ele>
        <time>2022-06-28T15:02:26Z</time>
      </trkpt>
      <trkpt lat="45.02295" lon="2.99945">
        <ele>1090.53</ele>
        <time>2022-06-28T15:02:27Z</time>
      </trkpt>
      <trkpt lat="45.02295" lon="2.9994">
        <ele>1089.97</ele>
        <time>2022-06-28T15:02:28Z</time>
      </trkpt>
      <trkpt lat="45.02292" lon="2.99936">
        <ele>1089.44</ele>
        <time>2022-06-28T15:02:29Z</time>
      </trkpt>
      <trkpt lat="45.02289" lon="2.99933">
        <ele>1088.97</ele>
        <time>2022-06-28T15:02:30Z</time>
      </trkpt>
      <trkpt lat="45.02285" lon="2.9993">
        <ele>1088.6</ele>
        <time>2022-06-28T15:02:31Z</time>
      </trkpt>
      <trkpt lat="45.02282" lon="2.99928">
        <ele>1088.31</ele>
        <time>2022-06-28T15:02:32Z</time>
      </trkpt>
      <trkpt lat="45.02258" lon="2.99923">
        <ele>1088.16</ele>
        <time>2022-06-28T15:02:39Z</time>
      </trkpt>
      <trkpt lat="45.02256" lon="2.99925">
        <ele>1088.26</ele>
        <time>2022-06-28T15:02:40Z</time>
      </trkpt>
      <trkpt lat="45.02254" lon="2.99929">
        <ele>1088.34</ele>
        <time>2022-06-28T15:02:41Z</time>
      </trkpt>
      <trkpt lat="45.02251" lon="2.99933">
        <ele>1088.39</ele>
        <time>2022-06-28T15:02:42Z</time>
      </trkpt>
      <trkpt lat="45.02249" lon="2.99938">
        <ele>1088.46</ele>
        <time>2022-06-28T15:02:43Z</time>
      </trkpt>
      <trkpt lat="45.02245" lon="2.99947">
        <ele>1088.56</ele>
        <time>2022-06-28T15:02:45Z</time>
      </trkpt>
      <trkpt lat="45.02241" lon="2.99957">
        <ele>1088.53</ele>
        <time>2022-06-28T15:02:47Z</time>
      </trkpt>
      <trkpt lat="45.02238" lon="2.99962">
        <ele>1088.52</ele>
        <time>2022-06-28T15:02:48Z</time>
      </trkpt>
      <trkpt lat="45.02235" lon="2.99967">
        <ele>1088.51</ele>
        <time>2022-06-28T15:02:49Z</time>
      </trkpt>
      <trkpt lat="45.02224" lon="2.99978">
        <ele>1088.35</ele>
        <time>2022-06-28T15:02:52Z</time>
      </trkpt>
      <trkpt lat="45.0222" lon="2.9998">
        <ele>1088.27</ele>
        <time>2022-06-28T15:02:53Z</time>
      </trkpt>
      <trkpt lat="45.02216" lon="2.99981">
        <ele>1088.2</ele>
        <time>2022-06-28T15:02:54Z</time>
      </trkpt>
      <trkpt lat="45.02211" lon="2.9998">
        <ele>1088.1</ele>
        <time>2022-06-28T15:02:55Z</time>
      </trkpt>
      <trkpt lat="45.02208" lon="2.99977">
        <ele>1087.99</ele>
        <time>2022-06-28T15:02:56Z</time>
      </trkpt>
      <trkpt lat="45.02206" lon="2.99971">
        <ele>1087.82</ele>
        <time>2022-06-28T15:02:57Z</time>
      </trkpt>
      <trkpt lat="45.02204" lon="2.99965">
        <ele>1087.8</ele>
        <time>2022-06-28T15:02:58Z</time>
      </trkpt>
      <trkpt lat="45.02203" lon="2.99959">
        <ele>1087.8</ele>
        <time>2022-06-28T15:02:59Z</time>
      </trkpt>
      <trkpt lat="45.02203" lon="2.99953">
        <ele>1087.74</ele>
        <time>2022-06-28T15:03:00Z</time>
      </trkpt>
      <trkpt lat="45.02201" lon="2.99919">
        <ele>1087.44</ele>
        <time>2022-06-28T15:03:05Z</time>
      </trkpt>
      <trkpt lat="45.02199" lon="2.99912">
        <ele>1087.17</ele>
        <time>2022-06-28T15:03:06Z</time>
      </trkpt>
      <trkpt lat="45.02199" lon="2.99904">
        <ele>1086.84</ele>
        <time>2022-06-28T15:03:07Z</time>
      </trkpt>
      <trkpt lat="45.02199" lon="2.99897">
        <ele>1086.5</ele>
        <time>2022-06-28T15:03:08Z</time>
      </trkpt>
      <trkpt lat="45.02198" lon="2.99888">
        <ele>1086.15</ele>
        <time>2022-06-28T15:03:09Z</time>
      </trkpt>
      <trkpt lat="45.02198" lon="2.9988">
        <ele>1085.82</ele>
        <time>2022-06-28T15:03:10Z</time>
      </trkpt>
      <trkpt lat="45.02197" lon="2.99853">
        <ele>1084.74</ele>
        <time>2022-06-28T15:03:13Z</time>
      </trkpt>
      <trkpt lat="45.02198" lon="2.99844">
        <ele>1084.38</ele>
        <time>2022-06-28T15:03:14Z</time>
      </trkpt>
      <trkpt lat="45.022" lon="2.99836">
        <ele>1084.06</ele>
        <time>2022-06-28T15:03:15Z</time>
      </trkpt>
      <trkpt lat="45.02203" lon="2.99829">
        <ele>1083.8</ele>
        <time>2022-06-28T15:03:16Z</time>
      </trkpt>
      <trkpt lat="45.02207" lon="2.99825">
        <ele>1083.58</ele>
        <time>2022-06-28T15:03:17Z</time>
      </trkpt>
      <trkpt lat="45.02211" lon="2.99824">
        <ele>1083.4</ele>
        <time>2022-06-28T15:03:18Z</time>
      </trkpt>
      <trkpt lat="45.02215" lon="2.99826">
        <ele>1083.28</ele>
        <time>2022-06-28T15:03:19Z</time>
      </trkpt>
      <trkpt lat="45.0222" lon="2.99829">
        <ele>1083.2</ele>
        <time>2022-06-28T15:03:20Z</time>
      </trkpt>
      <trkpt lat="45.02223" lon="2.99834">
        <ele>1083.21</ele>
        <time>2022-06-28T15:03:21Z</time>
      </trkpt>
      <trkpt lat="45.02226" lon="2.9984">
        <ele>1083.29</ele>
        <time>2022-06-28T15:03:22Z</time>
      </trkpt>
      <trkpt lat="45.02229" lon="2.99846">
        <ele>1083.54</ele>
        <time>2022-06-28T15:03:23Z</time>
      </trkpt>
      <trkpt lat="45.02231" lon="2.99851">
        <ele>1083.71</ele>
        <time>2022-06-28T15:03:24Z</time>
      </trkpt>
      <trkpt lat="45.02233" lon="2.99857">
        <ele>1083.9</ele>
        <time>2022-06-28T15:03:25Z</time>
      </trkpt>
      <trkpt lat="45.02235" lon="2.99863">
        <ele>1084.1</ele>
        <time>2022-06-28T15:03:26Z</time>
      </trkpt>
      <trkpt lat="45.02237" lon="2.99868">
        <ele>1084.3</ele>
        <time>2022-06-28T15:03:27Z</time>
      </trkpt>
      <trkpt lat="45.02243" lon="2.99885">
        <ele>1085.07</ele>
        <time>2022-06-28T15:03:30Z</time>
      </trkpt>
      <trkpt lat="45.02245" lon="2.99891">
        <ele>1085.34</ele>
        <time>2022-06-28T15:03:31Z</time>
      </trkpt>
      <trkpt lat="45.02246" lon="2.99897">
        <ele>1085.57</ele>
        <time>2022-06-28T15:03:32Z</time>
      </trkpt>
      <trkpt lat="45.02249" lon="2.99913">
        <ele>1086.08</ele>
        <time>2022-06-28T15:03:35Z</time>
      </trkpt>
      <trkpt lat="45.02252" lon="2.99916">
        <ele>1086.25</ele>
        <time>2022-06-28T15:03:36Z</time>
      </trkpt>
      <trkpt lat="45.02255" lon="2.99919">
        <ele>1086.47</ele>
        <time>2022-06-28T15:03:37Z</time>
      </trkpt>
      <trkpt lat="45.02274" lon="2.99929">
        <ele>1087.39</ele>
        <time>2022-06-28T15:03:41Z</time>
      </trkpt>
      <trkpt lat="45.02284" lon="2.99935">
        <ele>1087.62</ele>
        <time>2022-06-28T15:03:43Z</time>
      </trkpt>
      <trkpt lat="45.02289" lon="2.9994">
        <ele>1087.64</ele>
        <time>2022-06-28T15:03:44Z</time>
      </trkpt>
      <trkpt lat="45.02294" lon="2.99944">
        <ele>1087.61</ele>
        <time>2022-06-28T15:03:45Z</time>
      </trkpt>
      <trkpt lat="45.02301" lon="2.99955">
        <ele>1087.43</ele>
        <time>2022-06-28T15:03:47Z</time>
      </trkpt>
      <trkpt lat="45.02303" lon="2.99962">
        <ele>1087.23</ele>
        <time>2022-06-28T15:03:48Z</time>
      </trkpt>
      <trkpt lat="45.02304" lon="2.99974">
        <ele>1087.1</ele>
        <time>2022-06-28T15:03:50Z</time>
      </trkpt>
      <trkpt lat="45.02306" lon="2.99979">
        <ele>1087.08</ele>
        <time>2022-06-28T15:03:51Z</time>
      </trkpt>
      <trkpt lat="45.02308" lon="2.99982">
        <ele>1087.07</ele>
        <time>2022-06-28T15:03:52Z</time>
      </trkpt>
      <trkpt lat="45.0231" lon="2.99986">
        <ele>1087.13</ele>
        <time>2022-06-28T15:03:54Z</time>
      </trkpt>
      <trkpt lat="45.02308" lon="2.99987">
        <ele>1087.3</ele>
        <time>2022-06-28T15:03:56Z</time>
      </trkpt>
      <trkpt lat="45.02307" lon="2.99988">
        <ele>1087.47</ele>
        <time>2022-06-28T15:03:57Z</time>
      </trkpt>
      <trkpt lat="45.02305" lon="2.9999">
        <ele>1087.6</ele>
        <time>2022-06-28T15:03:58Z</time>
      </trkpt>
      <trkpt lat="45.02303" lon="2.99994">
        <ele>1087.7</ele>
        <time>2022-06-28T15:03:59Z</time>
      </trkpt>
      <trkpt lat="45.02301" lon="2.99999">
        <ele>1087.79</ele>
        <time>2022-06-28T15:04:00Z</time>
      </trkpt>
      <trkpt lat="45.02299" lon="3.00004">
        <ele>1087.8</ele>
        <time>2022-06-28T15:04:01Z</time>
      </trkpt>
      <trkpt lat="45.02297" lon="3.00008">
        <ele>1087.8</ele>
        <time>2022-06-28T15:04:02Z</time>
      </trkpt>
      <trkpt lat="45.02294" lon="3.00013">
        <ele>1087.79</ele>
        <time>2022-06-28T15:04:03Z</time>
      </trkpt>
      <trkpt lat="45.02291" lon="3.00017">
        <ele>1087.76</ele>
        <time>2022-06-28T15:04:04Z</time>
      </trkpt>
      <trkpt lat="45.02288" lon="3.00022">
        <ele>1087.73</ele>
        <time>2022-06-28T15:04:05Z</time>
      </trkpt>
      <trkpt lat="45.02287" lon="3.00027">
        <ele>1087.73</ele>
        <time>2022-06-28T15:04:06Z</time>
      </trkpt>
      <trkpt lat="45.02286" lon="3.00031">
        <ele>1087.76</ele>
        <time>2022-06-28T15:04:07Z</time>
      </trkpt>
      <trkpt lat="45.02286" lon="3.00033">
        <ele>1087.8</ele>
        <time>2022-06-28T15:04:08Z</time>
      </trkpt>
      <trkpt lat="45.02284" lon="3.00035">
        <ele>1087.86</ele>
        <time>2022-06-28T15:04:10Z</time>
      </trkpt>
      <trkpt lat="45.02283" lon="3.00034">
        <ele>1087.94</ele>
        <time>2022-06-28T15:04:11Z</time>
      </trkpt>
      <trkpt lat="45.02282" lon="3.00032">
        <ele>1088.03</ele>
        <time>2022-06-28T15:04:12Z</time>
      </trkpt>
      <trkpt lat="45.02282" lon="3.00025">
        <ele>1088.17</ele>
        <time>2022-06-28T15:04:14Z</time>
      </trkpt>
      <trkpt lat="45.02283" lon="3.00023">
        <ele>1088.25</ele>
        <time>2022-06-28T15:04:15Z</time>
      </trkpt>
      <trkpt lat="45.02284" lon="3.00021">
        <ele>1088.26</ele>
        <time>2022-06-28T15:04:16Z</time>
      </trkpt>
      <trkpt lat="45.02286" lon="3.0002">
        <ele>1088.25</ele>
        <time>2022-06-28T15:04:17Z</time>
      </trkpt>
      <trkpt lat="45.02288" lon="3.00018">
        <ele>1088.21</ele>
        <time>2022-06-28T15:04:18Z</time>
      </trkpt>
      <trkpt lat="45.02308" lon="2.99985">
        <ele>1087.55</ele>
        <time>2022-06-28T15:04:28Z</time>
      </trkpt>
      <trkpt lat="45.0231" lon="2.99984">
        <ele>1087.54</ele>
        <time>2022-06-28T15:04:29Z</time>
      </trkpt>
      <trkpt lat="45.02311" lon="2.99983">
        <ele>1087.55</ele>
        <time>2022-06-28T15:04:30Z</time>
      </trkpt>
      <trkpt lat="45.02339" lon="2.99983">
        <ele>1087.74</ele>
        <time>2022-06-28T15:04:39Z</time>
      </trkpt>
      <trkpt lat="45.02364" lon="2.99974">
        <ele>1086.77</ele>
        <time>2022-06-28T15:04:47Z</time>
      </trkpt>
      <trkpt lat="45.02365" lon="2.99971">
        <ele>1086.71</ele>
        <time>2022-06-28T15:04:48Z</time>
      </trkpt>
      <trkpt lat="45.02365" lon="2.99968">
        <ele>1086.68</ele>
        <time>2022-06-28T15:04:49Z</time>
      </trkpt>
      <trkpt lat="45.02365" lon="2.99965">
        <ele>1086.65</ele>
        <time>2022-06-28T15:04:50Z</time>
      </trkpt>
      <trkpt lat="45.02364" lon="2.99962">
        <ele>1086.6</ele>
        <time>2022-06-28T15:04:51Z</time>
      </trkpt>
      <trkpt lat="45.02362" lon="2.9991">
        <ele>1085.86</ele>
        <time>2022-06-28T15:05:01Z</time>
      </trkpt>
      <trkpt lat="45.02363" lon="2.99908">
        <ele>1085.67</ele>
        <time>2022-06-28T15:05:02Z</time>
      </trkpt>
      <trkpt lat="45.02366" lon="2.99906">
        <ele>1085.48</ele>
        <time>2022-06-28T15:05:03Z</time>
      </trkpt>
      <trkpt lat="45.02406" lon="2.99907">
        <ele>1084.65</ele>
        <time>2022-06-28T15:05:14Z</time>
      </trkpt>
      <trkpt lat="45.02465" lon="2.99918">
        <ele>1085.39</ele>
        <time>2022-06-28T15:05:27Z</time>
      </trkpt>
      <trkpt lat="45.0247" lon="2.99917">
        <ele>1085.49</ele>
        <time>2022-06-28T15:05:28Z</time>
      </trkpt>
      <trkpt lat="45.02473" lon="2.99915">
        <ele>1085.58</ele>
        <time>2022-06-28T15:05:29Z</time>
      </trkpt>
      <trkpt lat="45.02478" lon="2.99912">
        <ele>1085.69</ele>
        <time>2022-06-28T15:05:30Z</time>
      </trkpt>
      <trkpt lat="45.02482" lon="2.9991">
        <ele>1085.79</ele>
        <time>2022-06-28T15:05:31Z</time>
      </trkpt>
      <trkpt lat="45.02486" lon="2.99908">
        <ele>1085.9</ele>
        <time>2022-06-28T15:05:32Z</time>
      </trkpt>
      <trkpt lat="45.02489" lon="2.99906">
        <ele>1086.12</ele>
        <time>2022-06-28T15:05:33Z</time>
      </trkpt>
      <trkpt lat="45.02493" lon="2.99904">
        <ele>1086.24</ele>
        <time>2022-06-28T15:05:34Z</time>
      </trkpt>
      <trkpt lat="45.02497" lon="2.99901">
        <ele>1086.32</ele>
        <time>2022-06-28T15:05:35Z</time>
      </trkpt>
      <trkpt lat="45.02501" lon="2.99898">
        <ele>1086.39</ele>
        <time>2022-06-28T15:05:36Z</time>
      </trkpt>
      <trkpt lat="45.02505" lon="2.99894">
        <ele>1086.47</ele>
        <time>2022-06-28T15:05:37Z</time>
      </trkpt>
      <trkpt lat="45.02561" lon="2.99836">
        <ele>1084.63</ele>
        <time>2022-06-28T15:05:49Z</time>
      </trkpt>
      <trkpt lat="45.02568" lon="2.99828">
        <ele>1084.03</ele>
        <time>2022-06-28T15:05:50Z</time>
      </trkpt>
      <trkpt lat="45.02606" lon="2.998">
        <ele>1079.76</ele>
        <time>2022-06-28T15:05:54Z</time>
      </trkpt>
      <trkpt lat="45.02624" lon="2.99787">
        <ele>1076.71</ele>
        <time>2022-06-28T15:05:56Z</time>
      </trkpt>
      <trkpt lat="45.02642" lon="2.99776">
        <ele>1072.08</ele>
        <time>2022-06-28T15:05:58Z</time>
      </trkpt>
      <trkpt lat="45.02659" lon="2.99763">
        <ele>1069.07</ele>
        <time>2022-06-28T15:06:00Z</time>
      </trkpt>
      <trkpt lat="45.02686" lon="2.99742">
        <ele>1065.03</ele>
        <time>2022-06-28T15:06:03Z</time>
      </trkpt>
      <trkpt lat="45.02694" lon="2.99732">
        <ele>1063.69</ele>
        <time>2022-06-28T15:06:04Z</time>
      </trkpt>
      <trkpt lat="45.02702" lon="2.99723">
        <ele>1062.45</ele>
        <time>2022-06-28T15:06:05Z</time>
      </trkpt>
      <trkpt lat="45.02722" lon="2.99692">
        <ele>1059</ele>
        <time>2022-06-28T15:06:08Z</time>
      </trkpt>
      <trkpt lat="45.02741" lon="2.99661">
        <ele>1055.53</ele>
        <time>2022-06-28T15:06:11Z</time>
      </trkpt>
      <trkpt lat="45.02748" lon="2.99651">
        <ele>1054.24</ele>
        <time>2022-06-28T15:06:12Z</time>
      </trkpt>
      <trkpt lat="45.02756" lon="2.99643">
        <ele>1052.94</ele>
        <time>2022-06-28T15:06:13Z</time>
      </trkpt>
      <trkpt lat="45.02777" lon="2.99621">
        <ele>1049.29</ele>
        <time>2022-06-28T15:06:16Z</time>
      </trkpt>
      <trkpt lat="45.02783" lon="2.99613">
        <ele>1048.11</ele>
        <time>2022-06-28T15:06:17Z</time>
      </trkpt>
      <trkpt lat="45.02788" lon="2.99605">
        <ele>1046.96</ele>
        <time>2022-06-28T15:06:18Z</time>
      </trkpt>
      <trkpt lat="45.02803" lon="2.99581">
        <ele>1043.52</ele>
        <time>2022-06-28T15:06:21Z</time>
      </trkpt>
      <trkpt lat="45.0281" lon="2.99573">
        <ele>1042.35</ele>
        <time>2022-06-28T15:06:22Z</time>
      </trkpt>
      <trkpt lat="45.02818" lon="2.99567">
        <ele>1041.19</ele>
        <time>2022-06-28T15:06:23Z</time>
      </trkpt>
      <trkpt lat="45.02837" lon="2.99556">
        <ele>1037.41</ele>
        <time>2022-06-28T15:06:25Z</time>
      </trkpt>
      <trkpt lat="45.02867" lon="2.99543">
        <ele>1033.55</ele>
        <time>2022-06-28T15:06:28Z</time>
      </trkpt>
      <trkpt lat="45.02899" lon="2.99532">
        <ele>1029.77</ele>
        <time>2022-06-28T15:06:31Z</time>
      </trkpt>
      <trkpt lat="45.02928" lon="2.99521">
        <ele>1026.46</ele>
        <time>2022-06-28T15:06:34Z</time>
      </trkpt>
      <trkpt lat="45.02958" lon="2.9951">
        <ele>1023.2</ele>
        <time>2022-06-28T15:06:38Z</time>
      </trkpt>
      <trkpt lat="45.02985" lon="2.99491">
        <ele>1020.41</ele>
        <time>2022-06-28T15:06:43Z</time>
      </trkpt>
      <trkpt lat="45.02987" lon="2.99486">
        <ele>1019.9</ele>
        <time>2022-06-28T15:06:44Z</time>
      </trkpt>
      <trkpt lat="45.02988" lon="2.99482">
        <ele>1019.49</ele>
        <time>2022-06-28T15:06:45Z</time>
      </trkpt>
      <trkpt lat="45.02987" lon="2.99479">
        <ele>1019.15</ele>
        <time>2022-06-28T15:06:46Z</time>
      </trkpt>
      <trkpt lat="45.02985" lon="2.99478">
        <ele>1018.89</ele>
        <time>2022-06-28T15:06:47Z</time>
      </trkpt>
      <trkpt lat="45.02983" lon="2.99479">
        <ele>1018.91</ele>
        <time>2022-06-28T15:06:53Z</time>
      </trkpt>
      <trkpt lat="45.02977" lon="2.99472">
        <ele>1019.33</ele>
        <time>2022-06-28T15:07:03Z</time>
      </trkpt>
      <trkpt lat="45.02977" lon="2.99469">
        <ele>1019.28</ele>
        <time>2022-06-28T15:07:04Z</time>
      </trkpt>
      <trkpt lat="45.02977" lon="2.99467">
        <ele>1019.24</ele>
        <time>2022-06-28T15:07:05Z</time>
      </trkpt>
      <trkpt lat="45.02976" lon="2.99465">
        <ele>1019.21</ele>
        <time>2022-06-28T15:07:06Z</time>
      </trkpt>
      <trkpt lat="45.02975" lon="2.99463">
        <ele>1019.21</ele>
        <time>2022-06-28T15:07:07Z</time>
      </trkpt>
      <trkpt lat="45.02954" lon="2.9942">
        <ele>1020.95</ele>
        <time>2022-06-28T15:07:18Z</time>
      </trkpt>
      <trkpt lat="45.0293" lon="2.99371">
        <ele>1022.28</ele>
        <time>2022-06-28T15:07:28Z</time>
      </trkpt>
      <trkpt lat="45.02904" lon="2.99308">
        <ele>1023.42</ele>
        <time>2022-06-28T15:07:40Z</time>
      </trkpt>
      <trkpt lat="45.02902" lon="2.99304">
        <ele>1023.56</ele>
        <time>2022-06-28T15:07:41Z</time>
      </trkpt>
      <trkpt lat="45.029" lon="2.99299">
        <ele>1023.69</ele>
        <time>2022-06-28T15:07:42Z</time>
      </trkpt>
      <trkpt lat="45.02892" lon="2.99284">
        <ele>1024.07</ele>
        <time>2022-06-28T15:07:45Z</time>
      </trkpt>
      <trkpt lat="45.02877" lon="2.9926">
        <ele>1024.57</ele>
        <time>2022-06-28T15:07:50Z</time>
      </trkpt>
      <trkpt lat="45.0283" lon="2.99174">
        <ele>1027.81</ele>
        <time>2022-06-28T15:08:08Z</time>
      </trkpt>
      <trkpt lat="45.02822" lon="2.99115">
        <ele>1029.69</ele>
        <time>2022-06-28T15:08:17Z</time>
      </trkpt>
      <trkpt lat="45.02801" lon="2.99007">
        <ele>1029.8</ele>
        <time>2022-06-28T15:08:31Z</time>
      </trkpt>
      <trkpt lat="45.02784" lon="2.98885">
        <ele>1026.64</ele>
        <time>2022-06-28T15:08:44Z</time>
      </trkpt>
      <trkpt lat="45.02735" lon="2.98789">
        <ele>1024.28</ele>
        <time>2022-06-28T15:08:56Z</time>
      </trkpt>
      <trkpt lat="45.02682" lon="2.98676">
        <ele>1023.49</ele>
        <time>2022-06-28T15:09:12Z</time>
      </trkpt>
      <trkpt lat="45.02643" lon="2.9854">
        <ele>1022.29</ele>
        <time>2022-06-28T15:09:28Z</time>
      </trkpt>
      <trkpt lat="45.0262" lon="2.98478">
        <ele>1021.83</ele>
        <time>2022-06-28T15:09:35Z</time>
      </trkpt>
      <trkpt lat="45.02618" lon="2.98469">
        <ele>1021.72</ele>
        <time>2022-06-28T15:09:36Z</time>
      </trkpt>
      <trkpt lat="45.02617" lon="2.98459">
        <ele>1021.58</ele>
        <time>2022-06-28T15:09:37Z</time>
      </trkpt>
      <trkpt lat="45.02618" lon="2.98449">
        <ele>1021.41</ele>
        <time>2022-06-28T15:09:38Z</time>
      </trkpt>
      <trkpt lat="45.0262" lon="2.9844">
        <ele>1021.18</ele>
        <time>2022-06-28T15:09:39Z</time>
      </trkpt>
      <trkpt lat="45.02622" lon="2.98431">
        <ele>1020.91</ele>
        <time>2022-06-28T15:09:40Z</time>
      </trkpt>
      <trkpt lat="45.02626" lon="2.98422">
        <ele>1020.61</ele>
        <time>2022-06-28T15:09:41Z</time>
      </trkpt>
      <trkpt lat="45.02633" lon="2.98405">
        <ele>1019.88</ele>
        <time>2022-06-28T15:09:43Z</time>
      </trkpt>
      <trkpt lat="45.02638" lon="2.98398">
        <ele>1019.88</ele>
        <time>2022-06-28T15:09:44Z</time>
      </trkpt>
      <trkpt lat="45.0267" lon="2.98346">
        <ele>1018.05</ele>
        <time>2022-06-28T15:09:52Z</time>
      </trkpt>
      <trkpt lat="45.02672" lon="2.9834">
        <ele>1018.03</ele>
        <time>2022-06-28T15:09:53Z</time>
      </trkpt>
      <trkpt lat="45.02673" lon="2.98333">
        <ele>1018.01</ele>
        <time>2022-06-28T15:09:54Z</time>
      </trkpt>
      <trkpt lat="45.02674" lon="2.98326">
        <ele>1017.98</ele>
        <time>2022-06-28T15:09:55Z</time>
      </trkpt>
      <trkpt lat="45.02675" lon="2.98319">
        <ele>1017.96</ele>
        <time>2022-06-28T15:09:56Z</time>
      </trkpt>
      <trkpt lat="45.02676" lon="2.98311">
        <ele>1017.95</ele>
        <time>2022-06-28T15:09:57Z</time>
      </trkpt>
      <trkpt lat="45.02677" lon="2.98302">
        <ele>1017.94</ele>
        <time>2022-06-28T15:09:58Z</time>
      </trkpt>
      <trkpt lat="45.0268" lon="2.98216">
        <ele>1017.97</ele>
        <time>2022-06-28T15:10:08Z</time>
      </trkpt>
      <trkpt lat="45.02679" lon="2.98207">
        <ele>1017.97</ele>
        <time>2022-06-28T15:10:09Z</time>
      </trkpt>
      <trkpt lat="45.02676" lon="2.982">
        <ele>1017.65</ele>
        <time>2022-06-28T15:10:10Z</time>
      </trkpt>
      <trkpt lat="45.02659" lon="2.98132">
        <ele>1015.7</ele>
        <time>2022-06-28T15:10:20Z</time>
      </trkpt>
      <trkpt lat="45.02659" lon="2.98126">
        <ele>1015.58</ele>
        <time>2022-06-28T15:10:21Z</time>
      </trkpt>
      <trkpt lat="45.0266" lon="2.98091">
        <ele>1014.63</ele>
        <time>2022-06-28T15:10:27Z</time>
      </trkpt>
      <trkpt lat="45.02671" lon="2.98031">
        <ele>1013.49</ele>
        <time>2022-06-28T15:10:37Z</time>
      </trkpt>
      <trkpt lat="45.02674" lon="2.98025">
        <ele>1013.36</ele>
        <time>2022-06-28T15:10:38Z</time>
      </trkpt>
      <trkpt lat="45.02676" lon="2.9802">
        <ele>1013.21</ele>
        <time>2022-06-28T15:10:39Z</time>
      </trkpt>
      <trkpt lat="45.02682" lon="2.98001">
        <ele>1012.82</ele>
        <time>2022-06-28T15:10:48Z</time>
      </trkpt>
      <trkpt lat="45.02685" lon="2.97993">
        <ele>1012.62</ele>
        <time>2022-06-28T15:11:14Z</time>
      </trkpt>
      <trkpt lat="45.02684" lon="2.97987">
        <ele>1012.63</ele>
        <time>2022-06-28T15:11:16Z</time>
      </trkpt>
      <trkpt lat="45.02682" lon="2.97984">
        <ele>1012.59</ele>
        <time>2022-06-28T15:11:17Z</time>
      </trkpt>
      <trkpt lat="45.02656" lon="2.9794">
        <ele>1012.34</ele>
        <time>2022-06-28T15:11:26Z</time>
      </trkpt>
      <trkpt lat="45.02654" lon="2.97931">
        <ele>1012.37</ele>
        <time>2022-06-28T15:11:27Z</time>
      </trkpt>
      <trkpt lat="45.02627" lon="2.97814">
        <ele>1013.74</ele>
        <time>2022-06-28T15:11:42Z</time>
      </trkpt>
      <trkpt lat="45.02625" lon="2.97807">
        <ele>1013.84</ele>
        <time>2022-06-28T15:11:43Z</time>
      </trkpt>
      <trkpt lat="45.02623" lon="2.978">
        <ele>1013.98</ele>
        <time>2022-06-28T15:11:44Z</time>
      </trkpt>
      <trkpt lat="45.02622" lon="2.97793">
        <ele>1014.09</ele>
        <time>2022-06-28T15:11:45Z</time>
      </trkpt>
      <trkpt lat="45.02623" lon="2.97786">
        <ele>1014.19</ele>
        <time>2022-06-28T15:11:46Z</time>
      </trkpt>
      <trkpt lat="45.02626" lon="2.9778">
        <ele>1014.26</ele>
        <time>2022-06-28T15:11:47Z</time>
      </trkpt>
      <trkpt lat="45.02631" lon="2.97775">
        <ele>1014.29</ele>
        <time>2022-06-28T15:11:48Z</time>
      </trkpt>
      <trkpt lat="45.02635" lon="2.9777">
        <ele>1014.31</ele>
        <time>2022-06-28T15:11:49Z</time>
      </trkpt>
      <trkpt lat="45.0264" lon="2.97765">
        <ele>1014.32</ele>
        <time>2022-06-28T15:11:50Z</time>
      </trkpt>
      <trkpt lat="45.02718" lon="2.97686">
        <ele>1015.06</ele>
        <time>2022-06-28T15:12:07Z</time>
      </trkpt>
      <trkpt lat="45.02722" lon="2.97681">
        <ele>1015.09</ele>
        <time>2022-06-28T15:12:08Z</time>
      </trkpt>
      <trkpt lat="45.02725" lon="2.97675">
        <ele>1015.12</ele>
        <time>2022-06-28T15:12:09Z</time>
      </trkpt>
      <trkpt lat="45.02728" lon="2.97668">
        <ele>1015.16</ele>
        <time>2022-06-28T15:12:10Z</time>
      </trkpt>
      <trkpt lat="45.0273" lon="2.97661">
        <ele>1015.25</ele>
        <time>2022-06-28T15:12:11Z</time>
      </trkpt>
      <trkpt lat="45.02733" lon="2.97653">
        <ele>1015.37</ele>
        <time>2022-06-28T15:12:12Z</time>
      </trkpt>
      <trkpt lat="45.02746" lon="2.97599">
        <ele>1016.81</ele>
        <time>2022-06-28T15:12:20Z</time>
      </trkpt>
      <trkpt lat="45.02749" lon="2.97594">
        <ele>1016.98</ele>
        <time>2022-06-28T15:12:21Z</time>
      </trkpt>
      <trkpt lat="45.02752" lon="2.97588">
        <ele>1017.15</ele>
        <time>2022-06-28T15:12:22Z</time>
      </trkpt>
      <trkpt lat="45.02755" lon="2.97583">
        <ele>1017.3</ele>
        <time>2022-06-28T15:12:23Z</time>
      </trkpt>
      <trkpt lat="45.02759" lon="2.97579">
        <ele>1017.45</ele>
        <time>2022-06-28T15:12:24Z</time>
      </trkpt>
      <trkpt lat="45.02763" lon="2.97575">
        <ele>1017.62</ele>
        <time>2022-06-28T15:12:25Z</time>
      </trkpt>
      <trkpt lat="45.02767" lon="2.97571">
        <ele>1017.8</ele>
        <time>2022-06-28T15:12:26Z</time>
      </trkpt>
      <trkpt lat="45.0277" lon="2.97567">
        <ele>1017.98</ele>
        <time>2022-06-28T15:12:27Z</time>
      </trkpt>
      <trkpt lat="45.02774" lon="2.97562">
        <ele>1018.17</ele>
        <time>2022-06-28T15:12:28Z</time>
      </trkpt>
      <trkpt lat="45.02777" lon="2.97557">
        <ele>1018.36</ele>
        <time>2022-06-28T15:12:29Z</time>
      </trkpt>
      <trkpt lat="45.02781" lon="2.97552">
        <ele>1018.53</ele>
        <time>2022-06-28T15:12:30Z</time>
      </trkpt>
      <trkpt lat="45.02784" lon="2.97546">
        <ele>1018.68</ele>
        <time>2022-06-28T15:12:31Z</time>
      </trkpt>
      <trkpt lat="45.02819" lon="2.97486">
        <ele>1018.22</ele>
        <time>2022-06-28T15:12:41Z</time>
      </trkpt>
      <trkpt lat="45.02824" lon="2.9748">
        <ele>1018.03</ele>
        <time>2022-06-28T15:12:42Z</time>
      </trkpt>
      <trkpt lat="45.0283" lon="2.97475">
        <ele>1017.8</ele>
        <time>2022-06-28T15:12:43Z</time>
      </trkpt>
      <trkpt lat="45.02836" lon="2.97469">
        <ele>1017.4</ele>
        <time>2022-06-28T15:12:44Z</time>
      </trkpt>
      <trkpt lat="45.02843" lon="2.97461">
        <ele>1016.78</ele>
        <time>2022-06-28T15:12:45Z</time>
      </trkpt>
      <trkpt lat="45.02849" lon="2.97452">
        <ele>1016.05</ele>
        <time>2022-06-28T15:12:46Z</time>
      </trkpt>
      <trkpt lat="45.02853" lon="2.97441">
        <ele>1015.3</ele>
        <time>2022-06-28T15:12:47Z</time>
      </trkpt>
      <trkpt lat="45.02857" lon="2.9743">
        <ele>1014.49</ele>
        <time>2022-06-28T15:12:48Z</time>
      </trkpt>
      <trkpt lat="45.02861" lon="2.97419">
        <ele>1013.6</ele>
        <time>2022-06-28T15:12:49Z</time>
      </trkpt>
      <trkpt lat="45.02866" lon="2.97409">
        <ele>1012.71</ele>
        <time>2022-06-28T15:12:50Z</time>
      </trkpt>
      <trkpt lat="45.02872" lon="2.974">
        <ele>1011.82</ele>
        <time>2022-06-28T15:12:51Z</time>
      </trkpt>
      <trkpt lat="45.02878" lon="2.97391">
        <ele>1010.84</ele>
        <time>2022-06-28T15:12:52Z</time>
      </trkpt>
      <trkpt lat="45.02895" lon="2.97365">
        <ele>1007.83</ele>
        <time>2022-06-28T15:12:55Z</time>
      </trkpt>
      <trkpt lat="45.02911" lon="2.97342">
        <ele>1005.56</ele>
        <time>2022-06-28T15:12:58Z</time>
      </trkpt>
      <trkpt lat="45.02914" lon="2.97333">
        <ele>1004.97</ele>
        <time>2022-06-28T15:12:59Z</time>
      </trkpt>
      <trkpt lat="45.02916" lon="2.97324">
        <ele>1004.43</ele>
        <time>2022-06-28T15:13:00Z</time>
      </trkpt>
      <trkpt lat="45.02917" lon="2.97314">
        <ele>1003.48</ele>
        <time>2022-06-28T15:13:01Z</time>
      </trkpt>
      <trkpt lat="45.02918" lon="2.97303">
        <ele>1003.04</ele>
        <time>2022-06-28T15:13:02Z</time>
      </trkpt>
      <trkpt lat="45.02919" lon="2.97293">
        <ele>1002.51</ele>
        <time>2022-06-28T15:13:03Z</time>
      </trkpt>
      <trkpt lat="45.02921" lon="2.97273">
        <ele>1001.36</ele>
        <time>2022-06-28T15:13:05Z</time>
      </trkpt>
      <trkpt lat="45.02928" lon="2.97234">
        <ele>999.7</ele>
        <time>2022-06-28T15:13:09Z</time>
      </trkpt>
      <trkpt lat="45.02931" lon="2.97225">
        <ele>999.41</ele>
        <time>2022-06-28T15:13:10Z</time>
      </trkpt>
      <trkpt lat="45.02935" lon="2.97217">
        <ele>999.09</ele>
        <time>2022-06-28T15:13:11Z</time>
      </trkpt>
      <trkpt lat="45.02965" lon="2.97141">
        <ele>997.32</ele>
        <time>2022-06-28T15:13:20Z</time>
      </trkpt>
      <trkpt lat="45.02967" lon="2.97124">
        <ele>997.25</ele>
        <time>2022-06-28T15:13:22Z</time>
      </trkpt>
      <trkpt lat="45.0297" lon="2.97116">
        <ele>997.28</ele>
        <time>2022-06-28T15:13:23Z</time>
      </trkpt>
      <trkpt lat="45.02972" lon="2.97108">
        <ele>997.3</ele>
        <time>2022-06-28T15:13:24Z</time>
      </trkpt>
      <trkpt lat="45.02975" lon="2.97095">
        <ele>997.64</ele>
        <time>2022-06-28T15:13:26Z</time>
      </trkpt>
      <trkpt lat="45.02973" lon="2.97088">
        <ele>997.85</ele>
        <time>2022-06-28T15:13:27Z</time>
      </trkpt>
      <trkpt lat="45.02971" lon="2.97081">
        <ele>998.1</ele>
        <time>2022-06-28T15:13:28Z</time>
      </trkpt>
      <trkpt lat="45.02936" lon="2.9699">
        <ele>1001.18</ele>
        <time>2022-06-28T15:13:40Z</time>
      </trkpt>
      <trkpt lat="45.02913" lon="2.96925">
        <ele>1002.76</ele>
        <time>2022-06-28T15:13:52Z</time>
      </trkpt>
      <trkpt lat="45.02913" lon="2.96925">
        <ele>1002.77</ele>
        <time>2022-06-28T15:13:54Z</time>
      </trkpt>
      <trkpt lat="45.02907" lon="2.96917">
        <ele>1002.4</ele>
        <time>2022-06-28T15:14:19Z</time>
      </trkpt>
      <trkpt lat="45.02893" lon="2.96895">
        <ele>1002.05</ele>
        <time>2022-06-28T15:14:23Z</time>
      </trkpt>
      <trkpt lat="45.02887" lon="2.96889">
        <ele>1001.87</ele>
        <time>2022-06-28T15:14:24Z</time>
      </trkpt>
      <trkpt lat="45.02882" lon="2.96885">
        <ele>1001.64</ele>
        <time>2022-06-28T15:14:25Z</time>
      </trkpt>
      <trkpt lat="45.02815" lon="2.96833">
        <ele>1000.1</ele>
        <time>2022-06-28T15:14:37Z</time>
      </trkpt>
      <trkpt lat="45.02792" lon="2.96806">
        <ele>1000.25</ele>
        <time>2022-06-28T15:14:42Z</time>
      </trkpt>
      <trkpt lat="45.02788" lon="2.96802">
        <ele>1000.31</ele>
        <time>2022-06-28T15:14:43Z</time>
      </trkpt>
      <trkpt lat="45.02776" lon="2.96789">
        <ele>1000.51</ele>
        <time>2022-06-28T15:14:46Z</time>
      </trkpt>
      <trkpt lat="45.02765" lon="2.9677">
        <ele>1000.7</ele>
        <time>2022-06-28T15:14:50Z</time>
      </trkpt>
      <trkpt lat="45.02763" lon="2.96764">
        <ele>1000.74</ele>
        <time>2022-06-28T15:14:51Z</time>
      </trkpt>
      <trkpt lat="45.02761" lon="2.96758">
        <ele>1000.78</ele>
        <time>2022-06-28T15:14:52Z</time>
      </trkpt>
      <trkpt lat="45.02759" lon="2.96752">
        <ele>1000.82</ele>
        <time>2022-06-28T15:14:53Z</time>
      </trkpt>
      <trkpt lat="45.02757" lon="2.96746">
        <ele>1000.87</ele>
        <time>2022-06-28T15:14:54Z</time>
      </trkpt>
      <trkpt lat="45.02755" lon="2.9674">
        <ele>1000.92</ele>
        <time>2022-06-28T15:14:55Z</time>
      </trkpt>
      <trkpt lat="45.02752" lon="2.96727">
        <ele>1001.05</ele>
        <time>2022-06-28T15:14:57Z</time>
      </trkpt>
      <trkpt lat="45.02749" lon="2.96721">
        <ele>1001.11</ele>
        <time>2022-06-28T15:14:58Z</time>
      </trkpt>
      <trkpt lat="45.02745" lon="2.96716">
        <ele>1001.18</ele>
        <time>2022-06-28T15:14:59Z</time>
      </trkpt>
      <trkpt lat="45.02738" lon="2.96704">
        <ele>1001.33</ele>
        <time>2022-06-28T15:15:01Z</time>
      </trkpt>
      <trkpt lat="45.02733" lon="2.96699">
        <ele>1001.41</ele>
        <time>2022-06-28T15:15:02Z</time>
      </trkpt>
      <trkpt lat="45.02724" lon="2.9669">
        <ele>1001.58</ele>
        <time>2022-06-28T15:15:04Z</time>
      </trkpt>
      <trkpt lat="45.02721" lon="2.96685">
        <ele>1001.62</ele>
        <time>2022-06-28T15:15:05Z</time>
      </trkpt>
      <trkpt lat="45.02718" lon="2.96678">
        <ele>1001.67</ele>
        <time>2022-06-28T15:15:06Z</time>
      </trkpt>
      <trkpt lat="45.02715" lon="2.96664">
        <ele>1001.82</ele>
        <time>2022-06-28T15:15:08Z</time>
      </trkpt>
      <trkpt lat="45.02711" lon="2.96652">
        <ele>1001.97</ele>
        <time>2022-06-28T15:15:10Z</time>
      </trkpt>
      <trkpt lat="45.02711" lon="2.96646">
        <ele>1002.03</ele>
        <time>2022-06-28T15:15:11Z</time>
      </trkpt>
      <trkpt lat="45.02712" lon="2.96643">
        <ele>1002.07</ele>
        <time>2022-06-28T15:15:12Z</time>
      </trkpt>
      <trkpt lat="45.02713" lon="2.96642">
        <ele>1003.18</ele>
        <time>2022-06-28T15:15:17Z</time>
      </trkpt>
      <trkpt lat="45.02701" lon="2.96655">
        <ele>1003.31</ele>
        <time>2022-06-28T15:15:22Z</time>
      </trkpt>
      <trkpt lat="45.02697" lon="2.96656">
        <ele>1003.07</ele>
        <time>2022-06-28T15:15:23Z</time>
      </trkpt>
      <trkpt lat="45.02687" lon="2.96657">
        <ele>1002.63</ele>
        <time>2022-06-28T15:15:25Z</time>
      </trkpt>
      <trkpt lat="45.02682" lon="2.96657">
        <ele>1002.44</ele>
        <time>2022-06-28T15:15:26Z</time>
      </trkpt>
      <trkpt lat="45.02677" lon="2.96656">
        <ele>1002.28</ele>
        <time>2022-06-28T15:15:27Z</time>
      </trkpt>
      <trkpt lat="45.02673" lon="2.96654">
        <ele>1002.13</ele>
        <time>2022-06-28T15:15:28Z</time>
      </trkpt>
      <trkpt lat="45.02669" lon="2.96652">
        <ele>1002.01</ele>
        <time>2022-06-28T15:15:29Z</time>
      </trkpt>
      <trkpt lat="45.02666" lon="2.96649">
        <ele>1001.89</ele>
        <time>2022-06-28T15:15:30Z</time>
      </trkpt>
      <trkpt lat="45.02664" lon="2.96646">
        <ele>1001.9</ele>
        <time>2022-06-28T15:15:31Z</time>
      </trkpt>
      <trkpt lat="45.02662" lon="2.96642">
        <ele>1001.92</ele>
        <time>2022-06-28T15:15:32Z</time>
      </trkpt>
      <trkpt lat="45.02661" lon="2.96637">
        <ele>1001.93</ele>
        <time>2022-06-28T15:15:33Z</time>
      </trkpt>
      <trkpt lat="45.02663" lon="2.96632">
        <ele>1001.95</ele>
        <time>2022-06-28T15:15:34Z</time>
      </trkpt>
      <trkpt lat="45.02665" lon="2.96627">
        <ele>1001.96</ele>
        <time>2022-06-28T15:15:35Z</time>
      </trkpt>
      <trkpt lat="45.02669" lon="2.96623">
        <ele>1001.98</ele>
        <time>2022-06-28T15:15:36Z</time>
      </trkpt>
      <trkpt lat="45.02672" lon="2.9662">
        <ele>1002.01</ele>
        <time>2022-06-28T15:15:37Z</time>
      </trkpt>
      <trkpt lat="45.02697" lon="2.96582">
        <ele>1003.58</ele>
        <time>2022-06-28T15:15:46Z</time>
      </trkpt>
      <trkpt lat="45.027" lon="2.96579">
        <ele>1003.8</ele>
        <time>2022-06-28T15:15:47Z</time>
      </trkpt>
      <trkpt lat="45.02729" lon="2.96564">
        <ele>1006.81</ele>
        <time>2022-06-28T15:15:56Z</time>
      </trkpt>
      <trkpt lat="45.02731" lon="2.96563">
        <ele>1007.11</ele>
        <time>2022-06-28T15:15:57Z</time>
      </trkpt>
      <trkpt lat="45.0277" lon="2.96546">
        <ele>1009.69</ele>
        <time>2022-06-28T15:16:11Z</time>
      </trkpt>
      <trkpt lat="45.02812" lon="2.96526">
        <ele>1012.12</ele>
        <time>2022-06-28T15:16:23Z</time>
      </trkpt>
      <trkpt lat="45.02869" lon="2.96486">
        <ele>1013.65</ele>
        <time>2022-06-28T15:16:38Z</time>
      </trkpt>
      <trkpt lat="45.02876" lon="2.96479">
        <ele>1013.74</ele>
        <time>2022-06-28T15:16:40Z</time>
      </trkpt>
      <trkpt lat="45.02879" lon="2.96475">
        <ele>1013.77</ele>
        <time>2022-06-28T15:16:41Z</time>
      </trkpt>
      <trkpt lat="45.02887" lon="2.96461">
        <ele>1013.99</ele>
        <time>2022-06-28T15:16:44Z</time>
      </trkpt>
      <trkpt lat="45.02889" lon="2.96456">
        <ele>1014.1</ele>
        <time>2022-06-28T15:16:45Z</time>
      </trkpt>
      <trkpt lat="45.02889" lon="2.9645">
        <ele>1014.25</ele>
        <time>2022-06-28T15:16:46Z</time>
      </trkpt>
      <trkpt lat="45.02888" lon="2.96444">
        <ele>1014.38</ele>
        <time>2022-06-28T15:16:47Z</time>
      </trkpt>
      <trkpt lat="45.02886" lon="2.96439">
        <ele>1014.51</ele>
        <time>2022-06-28T15:16:48Z</time>
      </trkpt>
      <trkpt lat="45.02884" lon="2.96434">
        <ele>1014.61</ele>
        <time>2022-06-28T15:16:49Z</time>
      </trkpt>
      <trkpt lat="45.02833" lon="2.96335">
        <ele>1015.02</ele>
        <time>2022-06-28T15:17:06Z</time>
      </trkpt>
      <trkpt lat="45.0283" lon="2.9633">
        <ele>1014.86</ele>
        <time>2022-06-28T15:17:07Z</time>
      </trkpt>
      <trkpt lat="45.02828" lon="2.96326">
        <ele>1014.77</ele>
        <time>2022-06-28T15:17:08Z</time>
      </trkpt>
      <trkpt lat="45.02827" lon="2.96324">
        <ele>1014.58</ele>
        <time>2022-06-28T15:17:13Z</time>
      </trkpt>
      <trkpt lat="45.02823" lon="2.96315">
        <ele>1014.7</ele>
        <time>2022-06-28T15:17:34Z</time>
      </trkpt>
      <trkpt lat="45.0282" lon="2.9631">
        <ele>1014.68</ele>
        <time>2022-06-28T15:17:35Z</time>
      </trkpt>
      <trkpt lat="45.02773" lon="2.96231">
        <ele>1012.76</ele>
        <time>2022-06-28T15:17:47Z</time>
      </trkpt>
      <trkpt lat="45.02682" lon="2.96117">
        <ele>1010.29</ele>
        <time>2022-06-28T15:18:04Z</time>
      </trkpt>
      <trkpt lat="45.02611" lon="2.96023">
        <ele>1007.44</ele>
        <time>2022-06-28T15:18:16Z</time>
      </trkpt>
      <trkpt lat="45.02606" lon="2.96014">
        <ele>1007.12</ele>
        <time>2022-06-28T15:18:17Z</time>
      </trkpt>
      <trkpt lat="45.02603" lon="2.96003">
        <ele>1006.81</ele>
        <time>2022-06-28T15:18:18Z</time>
      </trkpt>
      <trkpt lat="45.02601" lon="2.95993">
        <ele>1006.52</ele>
        <time>2022-06-28T15:18:19Z</time>
      </trkpt>
      <trkpt lat="45.026" lon="2.95983">
        <ele>1006.19</ele>
        <time>2022-06-28T15:18:20Z</time>
      </trkpt>
      <trkpt lat="45.02589" lon="2.95827">
        <ele>1006.47</ele>
        <time>2022-06-28T15:18:37Z</time>
      </trkpt>
      <trkpt lat="45.02589" lon="2.95641">
        <ele>1006.95</ele>
        <time>2022-06-28T15:18:59Z</time>
      </trkpt>
      <trkpt lat="45.0259" lon="2.9549">
        <ele>1007.8</ele>
        <time>2022-06-28T15:19:17Z</time>
      </trkpt>
      <trkpt lat="45.02601" lon="2.95338">
        <ele>1009.08</ele>
        <time>2022-06-28T15:19:36Z</time>
      </trkpt>
      <trkpt lat="45.02614" lon="2.95262">
        <ele>1009.89</ele>
        <time>2022-06-28T15:19:46Z</time>
      </trkpt>
      <trkpt lat="45.02631" lon="2.95134">
        <ele>1011.17</ele>
        <time>2022-06-28T15:20:03Z</time>
      </trkpt>
      <trkpt lat="45.02649" lon="2.94996">
        <ele>1013.07</ele>
        <time>2022-06-28T15:20:22Z</time>
      </trkpt>
      <trkpt lat="45.02658" lon="2.94924">
        <ele>1014.67</ele>
        <time>2022-06-28T15:20:32Z</time>
      </trkpt>
      <trkpt lat="45.02659" lon="2.94919">
        <ele>1014.83</ele>
        <time>2022-06-28T15:20:33Z</time>
      </trkpt>
      <trkpt lat="45.02662" lon="2.94916">
        <ele>1014.99</ele>
        <time>2022-06-28T15:20:34Z</time>
      </trkpt>
      <trkpt lat="45.02666" lon="2.94916">
        <ele>1015.11</ele>
        <time>2022-06-28T15:20:35Z</time>
      </trkpt>
      <trkpt lat="45.0267" lon="2.94917">
        <ele>1015.21</ele>
        <time>2022-06-28T15:20:36Z</time>
      </trkpt>
      <trkpt lat="45.02674" lon="2.94919">
        <ele>1015.27</ele>
        <time>2022-06-28T15:20:37Z</time>
      </trkpt>
      <trkpt lat="45.02679" lon="2.9492">
        <ele>1015.34</ele>
        <time>2022-06-28T15:20:38Z</time>
      </trkpt>
      <trkpt lat="45.02683" lon="2.94922">
        <ele>1015.35</ele>
        <time>2022-06-28T15:20:39Z</time>
      </trkpt>
      <trkpt lat="45.02738" lon="2.94949">
        <ele>1016.61</ele>
        <time>2022-06-28T15:20:54Z</time>
      </trkpt>
      <trkpt lat="45.02738" lon="2.94949">
        <ele>1016.91</ele>
        <time>2022-06-28T15:20:56Z</time>
      </trkpt>
      <trkpt lat="45.02744" lon="2.94952">
        <ele>1017.06</ele>
        <time>2022-06-28T15:21:27Z</time>
      </trkpt>
      <trkpt lat="45.02796" lon="2.94976">
        <ele>1016.18</ele>
        <time>2022-06-28T15:21:39Z</time>
      </trkpt>
      <trkpt lat="45.02915" lon="2.95025">
        <ele>1017.34</ele>
        <time>2022-06-28T15:22:01Z</time>
      </trkpt>
      <trkpt lat="45.03009" lon="2.95049">
        <ele>1018.79</ele>
        <time>2022-06-28T15:22:18Z</time>
      </trkpt>
      <trkpt lat="45.03055" lon="2.95072">
        <ele>1019.5</ele>
        <time>2022-06-28T15:22:27Z</time>
      </trkpt>
      <trkpt lat="45.0306" lon="2.95074">
        <ele>1019.48</ele>
        <time>2022-06-28T15:22:28Z</time>
      </trkpt>
      <trkpt lat="45.03064" lon="2.95076">
        <ele>1019.46</ele>
        <time>2022-06-28T15:22:29Z</time>
      </trkpt>
      <trkpt lat="45.03067" lon="2.95079">
        <ele>1019.42</ele>
        <time>2022-06-28T15:22:30Z</time>
      </trkpt>
      <trkpt lat="45.03071" lon="2.95082">
        <ele>1019.39</ele>
        <time>2022-06-28T15:22:31Z</time>
      </trkpt>
      <trkpt lat="45.03081" lon="2.95086">
        <ele>1019.45</ele>
        <time>2022-06-28T15:22:34Z</time>
      </trkpt>
      <trkpt lat="45.03084" lon="2.95085">
        <ele>1019.51</ele>
        <time>2022-06-28T15:22:35Z</time>
      </trkpt>
      <trkpt lat="45.03086" lon="2.95082">
        <ele>1019.7</ele>
        <time>2022-06-28T15:22:36Z</time>
      </trkpt>
      <trkpt lat="45.03088" lon="2.95078">
        <ele>1019.79</ele>
        <time>2022-06-28T15:22:37Z</time>
      </trkpt>
      <trkpt lat="45.0309" lon="2.95074">
        <ele>1019.91</ele>
        <time>2022-06-28T15:22:38Z</time>
      </trkpt>
      <trkpt lat="45.0309" lon="2.95069">
        <ele>1020.04</ele>
        <time>2022-06-28T15:22:39Z</time>
      </trkpt>
      <trkpt lat="45.03091" lon="2.95065">
        <ele>1020.2</ele>
        <time>2022-06-28T15:22:40Z</time>
      </trkpt>
      <trkpt lat="45.03091" lon="2.9506">
        <ele>1020.36</ele>
        <time>2022-06-28T15:22:41Z</time>
      </trkpt>
      <trkpt lat="45.03097" lon="2.94976">
        <ele>1021.96</ele>
        <time>2022-06-28T15:22:58Z</time>
      </trkpt>
      <trkpt lat="45.03102" lon="2.949">
        <ele>1023.26</ele>
        <time>2022-06-28T15:23:14Z</time>
      </trkpt>
      <trkpt lat="45.03105" lon="2.94841">
        <ele>1024.55</ele>
        <time>2022-06-28T15:23:26Z</time>
      </trkpt>
      <trkpt lat="45.03112" lon="2.94761">
        <ele>1026.1</ele>
        <time>2022-06-28T15:23:43Z</time>
      </trkpt>
      <trkpt lat="45.03103" lon="2.94701">
        <ele>1027.18</ele>
        <time>2022-06-28T15:23:58Z</time>
      </trkpt>
      <trkpt lat="45.03089" lon="2.9469">
        <ele>1027.71</ele>
        <time>2022-06-28T15:24:06Z</time>
      </trkpt>
      <trkpt lat="45.0309" lon="2.94692">
        <ele>1027.95</ele>
        <time>2022-06-28T15:24:09Z</time>
      </trkpt>
      <trkpt lat="45.03091" lon="2.94693">
        <ele>1027.96</ele>
        <time>2022-06-28T15:24:10Z</time>
      </trkpt>
      <trkpt lat="45.03093" lon="2.94694">
        <ele>1027.92</ele>
        <time>2022-06-28T15:24:11Z</time>
      </trkpt>
      <trkpt lat="45.03095" lon="2.94695">
        <ele>1027.85</ele>
        <time>2022-06-28T15:24:12Z</time>
      </trkpt>
      <trkpt lat="45.03098" lon="2.94695">
        <ele>1027.76</ele>
        <time>2022-06-28T15:24:13Z</time>
      </trkpt>
      <trkpt lat="45.03102" lon="2.94694">
        <ele>1027.68</ele>
        <time>2022-06-28T15:24:14Z</time>
      </trkpt>
      <trkpt lat="45.03105" lon="2.94693">
        <ele>1027.51</ele>
        <time>2022-06-28T15:24:15Z</time>
      </trkpt>
      <trkpt lat="45.03108" lon="2.9469">
        <ele>1027.44</ele>
        <time>2022-06-28T15:24:16Z</time>
      </trkpt>
      <trkpt lat="45.0311" lon="2.94685">
        <ele>1027.4</ele>
        <time>2022-06-28T15:24:17Z</time>
      </trkpt>
      <trkpt lat="45.03112" lon="2.9468">
        <ele>1027.38</ele>
        <time>2022-06-28T15:24:18Z</time>
      </trkpt>
      <trkpt lat="45.03113" lon="2.94675">
        <ele>1027.41</ele>
        <time>2022-06-28T15:24:19Z</time>
      </trkpt>
      <trkpt lat="45.03127" lon="2.94577">
        <ele>1029.51</ele>
        <time>2022-06-28T15:24:35Z</time>
      </trkpt>
      <trkpt lat="45.03135" lon="2.94446">
        <ele>1030.43</ele>
        <time>2022-06-28T15:24:53Z</time>
      </trkpt>
      <trkpt lat="45.03145" lon="2.94368">
        <ele>1030.46</ele>
        <time>2022-06-28T15:25:03Z</time>
      </trkpt>
      <trkpt lat="45.03147" lon="2.94361">
        <ele>1030.48</ele>
        <time>2022-06-28T15:25:04Z</time>
      </trkpt>
      <trkpt lat="45.03169" lon="2.94262">
        <ele>1031.68</ele>
        <time>2022-06-28T15:25:18Z</time>
      </trkpt>
      <trkpt lat="45.03182" lon="2.9413">
        <ele>1032.14</ele>
        <time>2022-06-28T15:25:34Z</time>
      </trkpt>
      <trkpt lat="45.03215" lon="2.94025">
        <ele>1032.86</ele>
        <time>2022-06-28T15:25:48Z</time>
      </trkpt>
      <trkpt lat="45.03219" lon="2.94002">
        <ele>1033.3</ele>
        <time>2022-06-28T15:25:51Z</time>
      </trkpt>
      <trkpt lat="45.03222" lon="2.93972">
        <ele>1034.13</ele>
        <time>2022-06-28T15:25:55Z</time>
      </trkpt>
      <trkpt lat="45.03221" lon="2.93964">
        <ele>1034.6</ele>
        <time>2022-06-28T15:25:56Z</time>
      </trkpt>
      <trkpt lat="45.03221" lon="2.93841">
        <ele>1036.35</ele>
        <time>2022-06-28T15:26:12Z</time>
      </trkpt>
      <trkpt lat="45.03223" lon="2.93777">
        <ele>1037.27</ele>
        <time>2022-06-28T15:26:21Z</time>
      </trkpt>
      <trkpt lat="45.03224" lon="2.9377">
        <ele>1037.32</ele>
        <time>2022-06-28T15:26:22Z</time>
      </trkpt>
      <trkpt lat="45.03226" lon="2.93763">
        <ele>1037.38</ele>
        <time>2022-06-28T15:26:23Z</time>
      </trkpt>
      <trkpt lat="45.03251" lon="2.93651">
        <ele>1038.89</ele>
        <time>2022-06-28T15:26:39Z</time>
      </trkpt>
      <trkpt lat="45.03273" lon="2.93543">
        <ele>1041.36</ele>
        <time>2022-06-28T15:26:55Z</time>
      </trkpt>
      <trkpt lat="45.03287" lon="2.93492">
        <ele>1042.35</ele>
        <time>2022-06-28T15:27:03Z</time>
      </trkpt>
      <trkpt lat="45.03292" lon="2.9348">
        <ele>1042.52</ele>
        <time>2022-06-28T15:27:05Z</time>
      </trkpt>
      <trkpt lat="45.03293" lon="2.93474">
        <ele>1042.59</ele>
        <time>2022-06-28T15:27:06Z</time>
      </trkpt>
      <trkpt lat="45.03293" lon="2.93467">
        <ele>1042.7</ele>
        <time>2022-06-28T15:27:07Z</time>
      </trkpt>
      <trkpt lat="45.03292" lon="2.9346">
        <ele>1042.7</ele>
        <time>2022-06-28T15:27:08Z</time>
      </trkpt>
      <trkpt lat="45.0329" lon="2.93454">
        <ele>1042.98</ele>
        <time>2022-06-28T15:27:09Z</time>
      </trkpt>
      <trkpt lat="45.03288" lon="2.93448">
        <ele>1043.17</ele>
        <time>2022-06-28T15:27:10Z</time>
      </trkpt>
      <trkpt lat="45.03285" lon="2.93442">
        <ele>1043.33</ele>
        <time>2022-06-28T15:27:11Z</time>
      </trkpt>
      <trkpt lat="45.03273" lon="2.93419">
        <ele>1044.22</ele>
        <time>2022-06-28T15:27:15Z</time>
      </trkpt>
      <trkpt lat="45.03269" lon="2.93414">
        <ele>1044.43</ele>
        <time>2022-06-28T15:27:16Z</time>
      </trkpt>
      <trkpt lat="45.03265" lon="2.93409">
        <ele>1044.62</ele>
        <time>2022-06-28T15:27:17Z</time>
      </trkpt>
      <trkpt lat="45.03218" lon="2.93355">
        <ele>1045.26</ele>
        <time>2022-06-28T15:27:28Z</time>
      </trkpt>
      <trkpt lat="45.03216" lon="2.93348">
        <ele>1045.16</ele>
        <time>2022-06-28T15:27:29Z</time>
      </trkpt>
      <trkpt lat="45.03213" lon="2.93342">
        <ele>1045.08</ele>
        <time>2022-06-28T15:27:30Z</time>
      </trkpt>
      <trkpt lat="45.0321" lon="2.93336">
        <ele>1045</ele>
        <time>2022-06-28T15:27:31Z</time>
      </trkpt>
      <trkpt lat="45.03207" lon="2.9333">
        <ele>1044.94</ele>
        <time>2022-06-28T15:27:32Z</time>
      </trkpt>
      <trkpt lat="45.03204" lon="2.93325">
        <ele>1044.89</ele>
        <time>2022-06-28T15:27:33Z</time>
      </trkpt>
      <trkpt lat="45.03201" lon="2.93318">
        <ele>1044.89</ele>
        <time>2022-06-28T15:27:34Z</time>
      </trkpt>
      <trkpt lat="45.03199" lon="2.93311">
        <ele>1044.91</ele>
        <time>2022-06-28T15:27:35Z</time>
      </trkpt>
      <trkpt lat="45.03196" lon="2.93295">
        <ele>1044.97</ele>
        <time>2022-06-28T15:27:37Z</time>
      </trkpt>
      <trkpt lat="45.03194" lon="2.93287">
        <ele>1044.97</ele>
        <time>2022-06-28T15:27:38Z</time>
      </trkpt>
      <trkpt lat="45.03193" lon="2.93263">
        <ele>1045</ele>
        <time>2022-06-28T15:27:41Z</time>
      </trkpt>
      <trkpt lat="45.03193" lon="2.93247">
        <ele>1044.96</ele>
        <time>2022-06-28T15:27:43Z</time>
      </trkpt>
      <trkpt lat="45.03193" lon="2.93239">
        <ele>1044.94</ele>
        <time>2022-06-28T15:27:44Z</time>
      </trkpt>
      <trkpt lat="45.03192" lon="2.93153">
        <ele>1045.19</ele>
        <time>2022-06-28T15:27:56Z</time>
      </trkpt>
      <trkpt lat="45.03194" lon="2.93151">
        <ele>1045.43</ele>
        <time>2022-06-28T15:27:57Z</time>
      </trkpt>
      <trkpt lat="45.03195" lon="2.93157">
        <ele>1046.65</ele>
        <time>2022-06-28T15:28:02Z</time>
      </trkpt>
      <trkpt lat="45.03194" lon="2.93161">
        <ele>1046.79</ele>
        <time>2022-06-28T15:28:03Z</time>
      </trkpt>
      <trkpt lat="45.03193" lon="2.93167">
        <ele>1046.86</ele>
        <time>2022-06-28T15:28:04Z</time>
      </trkpt>
      <trkpt lat="45.03193" lon="2.93174">
        <ele>1046.88</ele>
        <time>2022-06-28T15:28:05Z</time>
      </trkpt>
      <trkpt lat="45.03193" lon="2.93181">
        <ele>1046.81</ele>
        <time>2022-06-28T15:28:06Z</time>
      </trkpt>
      <trkpt lat="45.03192" lon="2.93278">
        <ele>1045.89</ele>
        <time>2022-06-28T15:28:18Z</time>
      </trkpt>
      <trkpt lat="45.03192" lon="2.93287">
        <ele>1045.82</ele>
        <time>2022-06-28T15:28:19Z</time>
      </trkpt>
      <trkpt lat="45.03193" lon="2.93295">
        <ele>1045.72</ele>
        <time>2022-06-28T15:28:20Z</time>
      </trkpt>
      <trkpt lat="45.03195" lon="2.93303">
        <ele>1045.65</ele>
        <time>2022-06-28T15:28:21Z</time>
      </trkpt>
      <trkpt lat="45.03197" lon="2.93311">
        <ele>1045.56</ele>
        <time>2022-06-28T15:28:22Z</time>
      </trkpt>
      <trkpt lat="45.03199" lon="2.93319">
        <ele>1045.45</ele>
        <time>2022-06-28T15:28:23Z</time>
      </trkpt>
      <trkpt lat="45.03202" lon="2.93325">
        <ele>1045.23</ele>
        <time>2022-06-28T15:28:24Z</time>
      </trkpt>
      <trkpt lat="45.03206" lon="2.93331">
        <ele>1045.14</ele>
        <time>2022-06-28T15:28:25Z</time>
      </trkpt>
      <trkpt lat="45.0321" lon="2.93333">
        <ele>1045.08</ele>
        <time>2022-06-28T15:28:26Z</time>
      </trkpt>
      <trkpt lat="45.03213" lon="2.93333">
        <ele>1045.03</ele>
        <time>2022-06-28T15:28:27Z</time>
      </trkpt>
      <trkpt lat="45.03216" lon="2.9333">
        <ele>1045.04</ele>
        <time>2022-06-28T15:28:28Z</time>
      </trkpt>
      <trkpt lat="45.03217" lon="2.93325">
        <ele>1045.13</ele>
        <time>2022-06-28T15:28:29Z</time>
      </trkpt>
      <trkpt lat="45.03217" lon="2.9332">
        <ele>1045.25</ele>
        <time>2022-06-28T15:28:30Z</time>
      </trkpt>
      <trkpt lat="45.03217" lon="2.93315">
        <ele>1045.37</ele>
        <time>2022-06-28T15:28:31Z</time>
      </trkpt>
      <trkpt lat="45.03227" lon="2.93244">
        <ele>1046.24</ele>
        <time>2022-06-28T15:28:41Z</time>
      </trkpt>
      <trkpt lat="45.03225" lon="2.93193">
        <ele>1047.62</ele>
        <time>2022-06-28T15:28:48Z</time>
      </trkpt>
      <trkpt lat="45.03213" lon="2.9314">
        <ele>1047.13</ele>
        <time>2022-06-28T15:28:57Z</time>
      </trkpt>
      <trkpt lat="45.03214" lon="2.93144">
        <ele>1047.21</ele>
        <time>2022-06-28T15:29:02Z</time>
      </trkpt>
      <trkpt lat="45.03214" lon="2.93146">
        <ele>1047.22</ele>
        <time>2022-06-28T15:29:03Z</time>
      </trkpt>
      <trkpt lat="45.03215" lon="2.93147">
        <ele>1047.22</ele>
        <time>2022-06-28T15:29:04Z</time>
      </trkpt>
      <trkpt lat="45.03217" lon="2.93148">
        <ele>1047.22</ele>
        <time>2022-06-28T15:29:05Z</time>
      </trkpt>
      <trkpt lat="45.03218" lon="2.93148">
        <ele>1047.22</ele>
        <time>2022-06-28T15:29:06Z</time>
      </trkpt>
      <trkpt lat="45.03219" lon="2.93147">
        <ele>1047.24</ele>
        <time>2022-06-28T15:29:07Z</time>
      </trkpt>
      <trkpt lat="45.0322" lon="2.93146">
        <ele>1047.3</ele>
        <time>2022-06-28T15:29:08Z</time>
      </trkpt>
      <trkpt lat="45.0322" lon="2.93142">
        <ele>1047.91</ele>
        <time>2022-06-28T15:29:13Z</time>
      </trkpt>
      <trkpt lat="45.0321" lon="2.93089">
        <ele>1043.27</ele>
        <time>2022-06-28T15:56:00Z</time>
      </trkpt>
      <trkpt lat="45.0321" lon="2.93084">
        <ele>1043.2</ele>
        <time>2022-06-28T15:56:01Z</time>
      </trkpt>
      <trkpt lat="45.03212" lon="2.9308">
        <ele>1043.14</ele>
        <time>2022-06-28T15:56:02Z</time>
      </trkpt>
      <trkpt lat="45.03213" lon="2.93075">
        <ele>1043.07</ele>
        <time>2022-06-28T15:56:03Z</time>
      </trkpt>
      <trkpt lat="45.03232" lon="2.93036">
        <ele>1043.02</ele>
        <time>2022-06-28T15:56:13Z</time>
      </trkpt>
      <trkpt lat="45.03263" lon="2.93041">
        <ele>1044.48</ele>
        <time>2022-06-28T15:56:25Z</time>
      </trkpt>
      <trkpt lat="45.03264" lon="2.93041">
        <ele>1044.76</ele>
        <time>2022-06-28T15:56:29Z</time>
      </trkpt>
      <trkpt lat="45.03271" lon="2.93044">
        <ele>1044.32</ele>
        <time>2022-06-28T15:56:40Z</time>
      </trkpt>
      <trkpt lat="45.03312" lon="2.9305">
        <ele>1045.37</ele>
        <time>2022-06-28T15:56:53Z</time>
      </trkpt>
      <trkpt lat="45.03343" lon="2.9305">
        <ele>1046.9</ele>
        <time>2022-06-28T15:57:03Z</time>
      </trkpt>
      <trkpt lat="45.03371" lon="2.93069">
        <ele>1049.34</ele>
        <time>2022-06-28T15:57:16Z</time>
      </trkpt>
      <trkpt lat="45.03398" lon="2.93087">
        <ele>1050.59</ele>
        <time>2022-06-28T15:57:28Z</time>
      </trkpt>
      <trkpt lat="45.03435" lon="2.93108">
        <ele>1052.42</ele>
        <time>2022-06-28T15:57:40Z</time>
      </trkpt>
      <trkpt lat="45.0347" lon="2.93126">
        <ele>1055.23</ele>
        <time>2022-06-28T15:57:52Z</time>
      </trkpt>
      <trkpt lat="45.03498" lon="2.93136">
        <ele>1056.52</ele>
        <time>2022-06-28T15:58:01Z</time>
      </trkpt>
      <trkpt lat="45.03501" lon="2.93132">
        <ele>1056.54</ele>
        <time>2022-06-28T15:58:02Z</time>
      </trkpt>
      <trkpt lat="45.03504" lon="2.93128">
        <ele>1056.55</ele>
        <time>2022-06-28T15:58:03Z</time>
      </trkpt>
      <trkpt lat="45.03508" lon="2.93124">
        <ele>1056.54</ele>
        <time>2022-06-28T15:58:04Z</time>
      </trkpt>
      <trkpt lat="45.0351" lon="2.93118">
        <ele>1056.53</ele>
        <time>2022-06-28T15:58:05Z</time>
      </trkpt>
      <trkpt lat="45.03513" lon="2.93111">
        <ele>1056.52</ele>
        <time>2022-06-28T15:58:06Z</time>
      </trkpt>
      <trkpt lat="45.03515" lon="2.93103">
        <ele>1056.5</ele>
        <time>2022-06-28T15:58:07Z</time>
      </trkpt>
      <trkpt lat="45.03517" lon="2.93094">
        <ele>1056.48</ele>
        <time>2022-06-28T15:58:08Z</time>
      </trkpt>
      <trkpt lat="45.03518" lon="2.93086">
        <ele>1056.44</ele>
        <time>2022-06-28T15:58:09Z</time>
      </trkpt>
      <trkpt lat="45.03549" lon="2.92937">
        <ele>1055.62</ele>
        <time>2022-06-28T15:58:27Z</time>
      </trkpt>
      <trkpt lat="45.03564" lon="2.92829">
        <ele>1055.7</ele>
        <time>2022-06-28T15:58:40Z</time>
      </trkpt>
      <trkpt lat="45.03565" lon="2.92821">
        <ele>1055.75</ele>
        <time>2022-06-28T15:58:41Z</time>
      </trkpt>
      <trkpt lat="45.03565" lon="2.92812">
        <ele>1055.8</ele>
        <time>2022-06-28T15:58:42Z</time>
      </trkpt>
      <trkpt lat="45.03569" lon="2.92765">
        <ele>1056.15</ele>
        <time>2022-06-28T15:58:48Z</time>
      </trkpt>
      <trkpt lat="45.03568" lon="2.92757">
        <ele>1056.22</ele>
        <time>2022-06-28T15:58:49Z</time>
      </trkpt>
      <trkpt lat="45.03565" lon="2.92751">
        <ele>1056.31</ele>
        <time>2022-06-28T15:58:50Z</time>
      </trkpt>
      <trkpt lat="45.03561" lon="2.92747">
        <ele>1056.43</ele>
        <time>2022-06-28T15:58:51Z</time>
      </trkpt>
      <trkpt lat="45.03555" lon="2.92744">
        <ele>1056.52</ele>
        <time>2022-06-28T15:58:52Z</time>
      </trkpt>
      <trkpt lat="45.03549" lon="2.92743">
        <ele>1056.59</ele>
        <time>2022-06-28T15:58:53Z</time>
      </trkpt>
      <trkpt lat="45.03525" lon="2.92734">
        <ele>1056.66</ele>
        <time>2022-06-28T15:58:57Z</time>
      </trkpt>
      <trkpt lat="45.0347" lon="2.92717">
        <ele>1055.62</ele>
        <time>2022-06-28T15:59:06Z</time>
      </trkpt>
      <trkpt lat="45.03451" lon="2.92716">
        <ele>1055.3</ele>
        <time>2022-06-28T15:59:09Z</time>
      </trkpt>
      <trkpt lat="45.03446" lon="2.92715">
        <ele>1055.2</ele>
        <time>2022-06-28T15:59:10Z</time>
      </trkpt>
      <trkpt lat="45.03435" lon="2.9271">
        <ele>1054.99</ele>
        <time>2022-06-28T15:59:12Z</time>
      </trkpt>
      <trkpt lat="45.0343" lon="2.92706">
        <ele>1054.9</ele>
        <time>2022-06-28T15:59:13Z</time>
      </trkpt>
      <trkpt lat="45.03427" lon="2.92701">
        <ele>1054.84</ele>
        <time>2022-06-28T15:59:14Z</time>
      </trkpt>
      <trkpt lat="45.03424" lon="2.92696">
        <ele>1054.81</ele>
        <time>2022-06-28T15:59:15Z</time>
      </trkpt>
      <trkpt lat="45.03422" lon="2.92689">
        <ele>1054.86</ele>
        <time>2022-06-28T15:59:16Z</time>
      </trkpt>
      <trkpt lat="45.0342" lon="2.92683">
        <ele>1054.92</ele>
        <time>2022-06-28T15:59:17Z</time>
      </trkpt>
      <trkpt lat="45.03413" lon="2.92663">
        <ele>1055.27</ele>
        <time>2022-06-28T15:59:20Z</time>
      </trkpt>
      <trkpt lat="45.03409" lon="2.92657">
        <ele>1055.35</ele>
        <time>2022-06-28T15:59:21Z</time>
      </trkpt>
      <trkpt lat="45.03399" lon="2.9264">
        <ele>1055.52</ele>
        <time>2022-06-28T15:59:24Z</time>
      </trkpt>
      <trkpt lat="45.03396" lon="2.92634">
        <ele>1055.56</ele>
        <time>2022-06-28T15:59:25Z</time>
      </trkpt>
      <trkpt lat="45.03392" lon="2.92629">
        <ele>1055.56</ele>
        <time>2022-06-28T15:59:26Z</time>
      </trkpt>
      <trkpt lat="45.03349" lon="2.92573">
        <ele>1052.94</ele>
        <time>2022-06-28T15:59:37Z</time>
      </trkpt>
      <trkpt lat="45.03342" lon="2.92571">
        <ele>1051.54</ele>
        <time>2022-06-28T15:59:44Z</time>
      </trkpt>
      <trkpt lat="45.03335" lon="2.92571">
        <ele>1051.55</ele>
        <time>2022-06-28T15:59:49Z</time>
      </trkpt>
      <trkpt lat="45.03333" lon="2.92571">
        <ele>1051.43</ele>
        <time>2022-06-28T15:59:50Z</time>
      </trkpt>
      <trkpt lat="45.03307" lon="2.92571">
        <ele>1051.07</ele>
        <time>2022-06-28T16:00:00Z</time>
      </trkpt>
      <trkpt lat="45.03273" lon="2.92544">
        <ele>1051.46</ele>
        <time>2022-06-28T16:00:11Z</time>
      </trkpt>
      <trkpt lat="45.03257" lon="2.92503">
        <ele>1054.75</ele>
        <time>2022-06-28T16:00:22Z</time>
      </trkpt>
      <trkpt lat="45.0324" lon="2.92475">
        <ele>1057.84</ele>
        <time>2022-06-28T16:00:33Z</time>
      </trkpt>
      <trkpt lat="45.03218" lon="2.9245">
        <ele>1060.27</ele>
        <time>2022-06-28T16:00:46Z</time>
      </trkpt>
      <trkpt lat="45.03216" lon="2.92449">
        <ele>1060.54</ele>
        <time>2022-06-28T16:00:47Z</time>
      </trkpt>
      <trkpt lat="45.03215" lon="2.92447">
        <ele>1060.8</ele>
        <time>2022-06-28T16:00:48Z</time>
      </trkpt>
      <trkpt lat="45.03214" lon="2.92446">
        <ele>1061.05</ele>
        <time>2022-06-28T16:00:49Z</time>
      </trkpt>
      <trkpt lat="45.03212" lon="2.92445">
        <ele>1061.31</ele>
        <time>2022-06-28T16:00:50Z</time>
      </trkpt>
      <trkpt lat="45.03211" lon="2.92443">
        <ele>1061.56</ele>
        <time>2022-06-28T16:00:51Z</time>
      </trkpt>
      <trkpt lat="45.03209" lon="2.92442">
        <ele>1061.81</ele>
        <time>2022-06-28T16:00:52Z</time>
      </trkpt>
      <trkpt lat="45.03207" lon="2.9244">
        <ele>1062.06</ele>
        <time>2022-06-28T16:00:53Z</time>
      </trkpt>
      <trkpt lat="45.03206" lon="2.92438">
        <ele>1062.31</ele>
        <time>2022-06-28T16:00:54Z</time>
      </trkpt>
      <trkpt lat="45.03205" lon="2.92437">
        <ele>1062.58</ele>
        <time>2022-06-28T16:00:55Z</time>
      </trkpt>
      <trkpt lat="45.03203" lon="2.92435">
        <ele>1062.86</ele>
        <time>2022-06-28T16:00:56Z</time>
      </trkpt>
      <trkpt lat="45.03182" lon="2.92421">
        <ele>1066.13</ele>
        <time>2022-06-28T16:01:08Z</time>
      </trkpt>
      <trkpt lat="45.03159" lon="2.92407">
        <ele>1069.27</ele>
        <time>2022-06-28T16:01:19Z</time>
      </trkpt>
      <trkpt lat="45.03138" lon="2.92392">
        <ele>1072.46</ele>
        <time>2022-06-28T16:01:30Z</time>
      </trkpt>
      <trkpt lat="45.03126" lon="2.92354">
        <ele>1074.4</ele>
        <time>2022-06-28T16:01:41Z</time>
      </trkpt>
      <trkpt lat="45.03109" lon="2.92302">
        <ele>1076.75</ele>
        <time>2022-06-28T16:01:56Z</time>
      </trkpt>
      <trkpt lat="45.03078" lon="2.92291">
        <ele>1079.06</ele>
        <time>2022-06-28T16:02:09Z</time>
      </trkpt>
      <trkpt lat="45.03028" lon="2.9228">
        <ele>1081.67</ele>
        <time>2022-06-28T16:02:22Z</time>
      </trkpt>
      <trkpt lat="45.03023" lon="2.92278">
        <ele>1081.82</ele>
        <time>2022-06-28T16:02:23Z</time>
      </trkpt>
      <trkpt lat="45.03019" lon="2.92276">
        <ele>1081.98</ele>
        <time>2022-06-28T16:02:24Z</time>
      </trkpt>
      <trkpt lat="45.03014" lon="2.92272">
        <ele>1082.12</ele>
        <time>2022-06-28T16:02:25Z</time>
      </trkpt>
      <trkpt lat="45.0301" lon="2.92268">
        <ele>1082.24</ele>
        <time>2022-06-28T16:02:26Z</time>
      </trkpt>
      <trkpt lat="45.02979" lon="2.9224">
        <ele>1082.87</ele>
        <time>2022-06-28T16:02:33Z</time>
      </trkpt>
      <trkpt lat="45.02974" lon="2.92237">
        <ele>1082.95</ele>
        <time>2022-06-28T16:02:34Z</time>
      </trkpt>
      <trkpt lat="45.02969" lon="2.92235">
        <ele>1083.09</ele>
        <time>2022-06-28T16:02:35Z</time>
      </trkpt>
      <trkpt lat="45.02964" lon="2.92234">
        <ele>1083.24</ele>
        <time>2022-06-28T16:02:36Z</time>
      </trkpt>
      <trkpt lat="45.02959" lon="2.92232">
        <ele>1083.35</ele>
        <time>2022-06-28T16:02:37Z</time>
      </trkpt>
      <trkpt lat="45.02902" lon="2.92211">
        <ele>1084.36</ele>
        <time>2022-06-28T16:02:48Z</time>
      </trkpt>
      <trkpt lat="45.02897" lon="2.92208">
        <ele>1084.45</ele>
        <time>2022-06-28T16:02:49Z</time>
      </trkpt>
      <trkpt lat="45.02893" lon="2.92203">
        <ele>1084.55</ele>
        <time>2022-06-28T16:02:50Z</time>
      </trkpt>
      <trkpt lat="45.0288" lon="2.92187">
        <ele>1084.89</ele>
        <time>2022-06-28T16:02:53Z</time>
      </trkpt>
      <trkpt lat="45.02875" lon="2.92184">
        <ele>1085.03</ele>
        <time>2022-06-28T16:02:54Z</time>
      </trkpt>
      <trkpt lat="45.02854" lon="2.92173">
        <ele>1085.46</ele>
        <time>2022-06-28T16:02:58Z</time>
      </trkpt>
      <trkpt lat="45.02849" lon="2.92171">
        <ele>1085.55</ele>
        <time>2022-06-28T16:02:59Z</time>
      </trkpt>
      <trkpt lat="45.02823" lon="2.9216">
        <ele>1085.85</ele>
        <time>2022-06-28T16:03:04Z</time>
      </trkpt>
      <trkpt lat="45.02767" lon="2.92129">
        <ele>1086.64</ele>
        <time>2022-06-28T16:03:15Z</time>
      </trkpt>
      <trkpt lat="45.02763" lon="2.92125">
        <ele>1086.76</ele>
        <time>2022-06-28T16:03:16Z</time>
      </trkpt>
      <trkpt lat="45.02751" lon="2.92112">
        <ele>1087.45</ele>
        <time>2022-06-28T16:03:19Z</time>
      </trkpt>
      <trkpt lat="45.02728" lon="2.92092">
        <ele>1088.5</ele>
        <time>2022-06-28T16:03:24Z</time>
      </trkpt>
      <trkpt lat="45.02723" lon="2.92091">
        <ele>1088.62</ele>
        <time>2022-06-28T16:03:25Z</time>
      </trkpt>
      <trkpt lat="45.02719" lon="2.92092">
        <ele>1088.72</ele>
        <time>2022-06-28T16:03:26Z</time>
      </trkpt>
      <trkpt lat="45.02714" lon="2.92096">
        <ele>1088.82</ele>
        <time>2022-06-28T16:03:27Z</time>
      </trkpt>
      <trkpt lat="45.02709" lon="2.921">
        <ele>1088.91</ele>
        <time>2022-06-28T16:03:28Z</time>
      </trkpt>
      <trkpt lat="45.02704" lon="2.92105">
        <ele>1088.93</ele>
        <time>2022-06-28T16:03:29Z</time>
      </trkpt>
      <trkpt lat="45.02639" lon="2.92196">
        <ele>1087.38</ele>
        <time>2022-06-28T16:03:43Z</time>
      </trkpt>
      <trkpt lat="45.02616" lon="2.92231">
        <ele>1086.71</ele>
        <time>2022-06-28T16:03:48Z</time>
      </trkpt>
      <trkpt lat="45.02604" lon="2.92237">
        <ele>1086.54</ele>
        <time>2022-06-28T16:03:50Z</time>
      </trkpt>
      <trkpt lat="45.02598" lon="2.92238">
        <ele>1086.45</ele>
        <time>2022-06-28T16:03:51Z</time>
      </trkpt>
      <trkpt lat="45.02586" lon="2.92237">
        <ele>1086.28</ele>
        <time>2022-06-28T16:03:53Z</time>
      </trkpt>
      <trkpt lat="45.02581" lon="2.92234">
        <ele>1086.19</ele>
        <time>2022-06-28T16:03:54Z</time>
      </trkpt>
      <trkpt lat="45.02576" lon="2.9223">
        <ele>1086.09</ele>
        <time>2022-06-28T16:03:55Z</time>
      </trkpt>
      <trkpt lat="45.02571" lon="2.92225">
        <ele>1085.92</ele>
        <time>2022-06-28T16:03:56Z</time>
      </trkpt>
      <trkpt lat="45.02566" lon="2.9222">
        <ele>1085.83</ele>
        <time>2022-06-28T16:03:57Z</time>
      </trkpt>
      <trkpt lat="45.02562" lon="2.92216">
        <ele>1085.72</ele>
        <time>2022-06-28T16:03:58Z</time>
      </trkpt>
      <trkpt lat="45.02557" lon="2.92213">
        <ele>1085.6</ele>
        <time>2022-06-28T16:03:59Z</time>
      </trkpt>
      <trkpt lat="45.02541" lon="2.92201">
        <ele>1085.3</ele>
        <time>2022-06-28T16:04:02Z</time>
      </trkpt>
      <trkpt lat="45.02536" lon="2.92198">
        <ele>1085.17</ele>
        <time>2022-06-28T16:04:03Z</time>
      </trkpt>
      <trkpt lat="45.02493" lon="2.92152">
        <ele>1084.06</ele>
        <time>2022-06-28T16:04:12Z</time>
      </trkpt>
      <trkpt lat="45.02487" lon="2.92148">
        <ele>1083.89</ele>
        <time>2022-06-28T16:04:13Z</time>
      </trkpt>
      <trkpt lat="45.02482" lon="2.92144">
        <ele>1083.72</ele>
        <time>2022-06-28T16:04:14Z</time>
      </trkpt>
      <trkpt lat="45.0247" lon="2.92138">
        <ele>1083.27</ele>
        <time>2022-06-28T16:04:16Z</time>
      </trkpt>
      <trkpt lat="45.02463" lon="2.92137">
        <ele>1082.96</ele>
        <time>2022-06-28T16:04:17Z</time>
      </trkpt>
      <trkpt lat="45.02457" lon="2.92134">
        <ele>1082.64</ele>
        <time>2022-06-28T16:04:18Z</time>
      </trkpt>
      <trkpt lat="45.02452" lon="2.9213">
        <ele>1082.28</ele>
        <time>2022-06-28T16:04:19Z</time>
      </trkpt>
      <trkpt lat="45.02448" lon="2.92124">
        <ele>1081.93</ele>
        <time>2022-06-28T16:04:20Z</time>
      </trkpt>
      <trkpt lat="45.02443" lon="2.92118">
        <ele>1081.26</ele>
        <time>2022-06-28T16:04:21Z</time>
      </trkpt>
      <trkpt lat="45.02438" lon="2.92112">
        <ele>1080.95</ele>
        <time>2022-06-28T16:04:22Z</time>
      </trkpt>
      <trkpt lat="45.02433" lon="2.92102">
        <ele>1080.61</ele>
        <time>2022-06-28T16:04:23Z</time>
      </trkpt>
      <trkpt lat="45.02429" lon="2.92094">
        <ele>1080.27</ele>
        <time>2022-06-28T16:04:24Z</time>
      </trkpt>
      <trkpt lat="45.02427" lon="2.92085">
        <ele>1079.9</ele>
        <time>2022-06-28T16:04:25Z</time>
      </trkpt>
      <trkpt lat="45.02426" lon="2.92077">
        <ele>1079.53</ele>
        <time>2022-06-28T16:04:26Z</time>
      </trkpt>
      <trkpt lat="45.02424" lon="2.92069">
        <ele>1079.13</ele>
        <time>2022-06-28T16:04:27Z</time>
      </trkpt>
      <trkpt lat="45.02423" lon="2.9206">
        <ele>1078.74</ele>
        <time>2022-06-28T16:04:28Z</time>
      </trkpt>
      <trkpt lat="45.02421" lon="2.92053">
        <ele>1078.38</ele>
        <time>2022-06-28T16:04:29Z</time>
      </trkpt>
      <trkpt lat="45.0242" lon="2.92046">
        <ele>1078.04</ele>
        <time>2022-06-28T16:04:30Z</time>
      </trkpt>
      <trkpt lat="45.02417" lon="2.92041">
        <ele>1077.71</ele>
        <time>2022-06-28T16:04:31Z</time>
      </trkpt>
      <trkpt lat="45.02415" lon="2.92036">
        <ele>1077.39</ele>
        <time>2022-06-28T16:04:32Z</time>
      </trkpt>
      <trkpt lat="45.02414" lon="2.92031">
        <ele>1077.11</ele>
        <time>2022-06-28T16:04:33Z</time>
      </trkpt>
      <trkpt lat="45.02413" lon="2.92025">
        <ele>1076.85</ele>
        <time>2022-06-28T16:04:34Z</time>
      </trkpt>
      <trkpt lat="45.02411" lon="2.92021">
        <ele>1076.53</ele>
        <time>2022-06-28T16:04:35Z</time>
      </trkpt>
      <trkpt lat="45.0241" lon="2.92018">
        <ele>1076.13</ele>
        <time>2022-06-28T16:04:36Z</time>
      </trkpt>
      <trkpt lat="45.02408" lon="2.92016">
        <ele>1075.71</ele>
        <time>2022-06-28T16:04:37Z</time>
      </trkpt>
      <trkpt lat="45.02406" lon="2.92016">
        <ele>1075.32</ele>
        <time>2022-06-28T16:04:38Z</time>
      </trkpt>
      <trkpt lat="45.02403" lon="2.92016">
        <ele>1074.97</ele>
        <time>2022-06-28T16:04:39Z</time>
      </trkpt>
      <trkpt lat="45.024" lon="2.92016">
        <ele>1074.67</ele>
        <time>2022-06-28T16:04:40Z</time>
      </trkpt>
      <trkpt lat="45.02398" lon="2.92018">
        <ele>1074.37</ele>
        <time>2022-06-28T16:04:41Z</time>
      </trkpt>
      <trkpt lat="45.02396" lon="2.92021">
        <ele>1074.04</ele>
        <time>2022-06-28T16:04:42Z</time>
      </trkpt>
      <trkpt lat="45.02385" lon="2.92041">
        <ele>1071.96</ele>
        <time>2022-06-28T16:04:46Z</time>
      </trkpt>
      <trkpt lat="45.02381" lon="2.92045">
        <ele>1071.5</ele>
        <time>2022-06-28T16:04:47Z</time>
      </trkpt>
      <trkpt lat="45.02377" lon="2.92047">
        <ele>1071.08</ele>
        <time>2022-06-28T16:04:48Z</time>
      </trkpt>
      <trkpt lat="45.02374" lon="2.92046">
        <ele>1070.69</ele>
        <time>2022-06-28T16:04:49Z</time>
      </trkpt>
      <trkpt lat="45.0237" lon="2.92043">
        <ele>1070.37</ele>
        <time>2022-06-28T16:04:50Z</time>
      </trkpt>
      <trkpt lat="45.02367" lon="2.9204">
        <ele>1070.07</ele>
        <time>2022-06-28T16:04:51Z</time>
      </trkpt>
      <trkpt lat="45.02363" lon="2.92038">
        <ele>1069.77</ele>
        <time>2022-06-28T16:04:52Z</time>
      </trkpt>
      <trkpt lat="45.02359" lon="2.92038">
        <ele>1069.46</ele>
        <time>2022-06-28T16:04:53Z</time>
      </trkpt>
      <trkpt lat="45.02355" lon="2.92039">
        <ele>1069.16</ele>
        <time>2022-06-28T16:04:54Z</time>
      </trkpt>
      <trkpt lat="45.02353" lon="2.9204">
        <ele>1068.87</ele>
        <time>2022-06-28T16:04:55Z</time>
      </trkpt>
      <trkpt lat="45.02351" lon="2.92042">
        <ele>1068.13</ele>
        <time>2022-06-28T16:05:00Z</time>
      </trkpt>
      <trkpt lat="45.02344" lon="2.92048">
        <ele>1067.88</ele>
        <time>2022-06-28T16:05:16Z</time>
      </trkpt>
      <trkpt lat="45.02341" lon="2.9205">
        <ele>1067.86</ele>
        <time>2022-06-28T16:05:17Z</time>
      </trkpt>
      <trkpt lat="45.02338" lon="2.92053">
        <ele>1067.82</ele>
        <time>2022-06-28T16:05:18Z</time>
      </trkpt>
      <trkpt lat="45.02327" lon="2.92062">
        <ele>1067.66</ele>
        <time>2022-06-28T16:05:21Z</time>
      </trkpt>
      <trkpt lat="45.02323" lon="2.92063">
        <ele>1067.55</ele>
        <time>2022-06-28T16:05:22Z</time>
      </trkpt>
      <trkpt lat="45.02318" lon="2.92064">
        <ele>1067.37</ele>
        <time>2022-06-28T16:05:23Z</time>
      </trkpt>
      <trkpt lat="45.02314" lon="2.92067">
        <ele>1067.14</ele>
        <time>2022-06-28T16:05:24Z</time>
      </trkpt>
      <trkpt lat="45.02309" lon="2.92069">
        <ele>1066.91</ele>
        <time>2022-06-28T16:05:25Z</time>
      </trkpt>
      <trkpt lat="45.02305" lon="2.92071">
        <ele>1066.69</ele>
        <time>2022-06-28T16:05:26Z</time>
      </trkpt>
      <trkpt lat="45.02301" lon="2.92072">
        <ele>1066.44</ele>
        <time>2022-06-28T16:05:27Z</time>
      </trkpt>
      <trkpt lat="45.02296" lon="2.92074">
        <ele>1066.18</ele>
        <time>2022-06-28T16:05:28Z</time>
      </trkpt>
      <trkpt lat="45.02291" lon="2.92075">
        <ele>1065.91</ele>
        <time>2022-06-28T16:05:29Z</time>
      </trkpt>
      <trkpt lat="45.02286" lon="2.92076">
        <ele>1065.6</ele>
        <time>2022-06-28T16:05:30Z</time>
      </trkpt>
      <trkpt lat="45.02281" lon="2.92076">
        <ele>1065.22</ele>
        <time>2022-06-28T16:05:31Z</time>
      </trkpt>
      <trkpt lat="45.02263" lon="2.92081">
        <ele>1064.12</ele>
        <time>2022-06-28T16:05:35Z</time>
      </trkpt>
      <trkpt lat="45.02258" lon="2.92083">
        <ele>1063.95</ele>
        <time>2022-06-28T16:05:36Z</time>
      </trkpt>
      <trkpt lat="45.02253" lon="2.92084">
        <ele>1063.72</ele>
        <time>2022-06-28T16:05:37Z</time>
      </trkpt>
      <trkpt lat="45.02249" lon="2.92086">
        <ele>1063.54</ele>
        <time>2022-06-28T16:05:38Z</time>
      </trkpt>
      <trkpt lat="45.02246" lon="2.92086">
        <ele>1063.35</ele>
        <time>2022-06-28T16:05:39Z</time>
      </trkpt>
      <trkpt lat="45.02243" lon="2.92085">
        <ele>1063.19</ele>
        <time>2022-06-28T16:05:40Z</time>
      </trkpt>
      <trkpt lat="45.02242" lon="2.92081">
        <ele>1063.01</ele>
        <time>2022-06-28T16:05:41Z</time>
      </trkpt>
      <trkpt lat="45.02241" lon="2.92075">
        <ele>1062.83</ele>
        <time>2022-06-28T16:05:42Z</time>
      </trkpt>
      <trkpt lat="45.02241" lon="2.92068">
        <ele>1062.56</ele>
        <time>2022-06-28T16:05:43Z</time>
      </trkpt>
      <trkpt lat="45.02254" lon="2.91963">
        <ele>1059.53</ele>
        <time>2022-06-28T16:05:56Z</time>
      </trkpt>
      <trkpt lat="45.02255" lon="2.91955">
        <ele>1059.23</ele>
        <time>2022-06-28T16:05:57Z</time>
      </trkpt>
      <trkpt lat="45.02255" lon="2.91947">
        <ele>1058.66</ele>
        <time>2022-06-28T16:05:58Z</time>
      </trkpt>
      <trkpt lat="45.02254" lon="2.91939">
        <ele>1058.66</ele>
        <time>2022-06-28T16:05:59Z</time>
      </trkpt>
      <trkpt lat="45.02252" lon="2.91931">
        <ele>1058.43</ele>
        <time>2022-06-28T16:06:00Z</time>
      </trkpt>
      <trkpt lat="45.02249" lon="2.91922">
        <ele>1058.23</ele>
        <time>2022-06-28T16:06:01Z</time>
      </trkpt>
      <trkpt lat="45.02247" lon="2.91913">
        <ele>1058.05</ele>
        <time>2022-06-28T16:06:02Z</time>
      </trkpt>
      <trkpt lat="45.02245" lon="2.91904">
        <ele>1057.91</ele>
        <time>2022-06-28T16:06:03Z</time>
      </trkpt>
      <trkpt lat="45.02243" lon="2.91887">
        <ele>1057.74</ele>
        <time>2022-06-28T16:06:05Z</time>
      </trkpt>
      <trkpt lat="45.02241" lon="2.91864">
        <ele>1057.7</ele>
        <time>2022-06-28T16:06:08Z</time>
      </trkpt>
      <trkpt lat="45.02239" lon="2.91806">
        <ele>1060.85</ele>
        <time>2022-06-28T16:06:16Z</time>
      </trkpt>
      <trkpt lat="45.02239" lon="2.91799">
        <ele>1060.85</ele>
        <time>2022-06-28T16:06:17Z</time>
      </trkpt>
      <trkpt lat="45.02243" lon="2.91763">
        <ele>1063.57</ele>
        <time>2022-06-28T16:06:23Z</time>
      </trkpt>
      <trkpt lat="45.02264" lon="2.9166">
        <ele>1065.63</ele>
        <time>2022-06-28T16:06:38Z</time>
      </trkpt>
      <trkpt lat="45.02265" lon="2.91638">
        <ele>1065.72</ele>
        <time>2022-06-28T16:06:41Z</time>
      </trkpt>
      <trkpt lat="45.02261" lon="2.9161">
        <ele>1065.98</ele>
        <time>2022-06-28T16:06:45Z</time>
      </trkpt>
      <trkpt lat="45.02259" lon="2.91603">
        <ele>1066.1</ele>
        <time>2022-06-28T16:06:46Z</time>
      </trkpt>
      <trkpt lat="45.02257" lon="2.91597">
        <ele>1066.23</ele>
        <time>2022-06-28T16:06:47Z</time>
      </trkpt>
      <trkpt lat="45.02217" lon="2.91506">
        <ele>1067.72</ele>
        <time>2022-06-28T16:07:01Z</time>
      </trkpt>
      <trkpt lat="45.02215" lon="2.91498">
        <ele>1067.68</ele>
        <time>2022-06-28T16:07:02Z</time>
      </trkpt>
      <trkpt lat="45.02213" lon="2.9149">
        <ele>1067.66</ele>
        <time>2022-06-28T16:07:03Z</time>
      </trkpt>
      <trkpt lat="45.022" lon="2.91401">
        <ele>1067.07</ele>
        <time>2022-06-28T16:07:14Z</time>
      </trkpt>
      <trkpt lat="45.02197" lon="2.91395">
        <ele>1067.01</ele>
        <time>2022-06-28T16:07:15Z</time>
      </trkpt>
      <trkpt lat="45.02192" lon="2.9139">
        <ele>1066.94</ele>
        <time>2022-06-28T16:07:16Z</time>
      </trkpt>
      <trkpt lat="45.02187" lon="2.91386">
        <ele>1066.89</ele>
        <time>2022-06-28T16:07:17Z</time>
      </trkpt>
      <trkpt lat="45.02181" lon="2.91382">
        <ele>1066.81</ele>
        <time>2022-06-28T16:07:18Z</time>
      </trkpt>
      <trkpt lat="45.02159" lon="2.91365">
        <ele>1066.39</ele>
        <time>2022-06-28T16:07:22Z</time>
      </trkpt>
      <trkpt lat="45.02133" lon="2.91331">
        <ele>1066.04</ele>
        <time>2022-06-28T16:07:28Z</time>
      </trkpt>
      <trkpt lat="45.02128" lon="2.91326">
        <ele>1066.05</ele>
        <time>2022-06-28T16:07:29Z</time>
      </trkpt>
      <trkpt lat="45.02123" lon="2.91321">
        <ele>1066.05</ele>
        <time>2022-06-28T16:07:30Z</time>
      </trkpt>
      <trkpt lat="45.02069" lon="2.91285">
        <ele>1066.58</ele>
        <time>2022-06-28T16:07:40Z</time>
      </trkpt>
      <trkpt lat="45.02057" lon="2.9128">
        <ele>1066.66</ele>
        <time>2022-06-28T16:07:42Z</time>
      </trkpt>
      <trkpt lat="45.0205" lon="2.91279">
        <ele>1066.69</ele>
        <time>2022-06-28T16:07:43Z</time>
      </trkpt>
      <trkpt lat="45.02014" lon="2.91279">
        <ele>1066.63</ele>
        <time>2022-06-28T16:07:49Z</time>
      </trkpt>
      <trkpt lat="45.02008" lon="2.91278">
        <ele>1066.61</ele>
        <time>2022-06-28T16:07:50Z</time>
      </trkpt>
      <trkpt lat="45.02002" lon="2.91275">
        <ele>1066.6</ele>
        <time>2022-06-28T16:07:51Z</time>
      </trkpt>
      <trkpt lat="45.01997" lon="2.91272">
        <ele>1066.61</ele>
        <time>2022-06-28T16:07:52Z</time>
      </trkpt>
      <trkpt lat="45.01992" lon="2.91267">
        <ele>1066.63</ele>
        <time>2022-06-28T16:07:53Z</time>
      </trkpt>
      <trkpt lat="45.01987" lon="2.91263">
        <ele>1066.65</ele>
        <time>2022-06-28T16:07:54Z</time>
      </trkpt>
      <trkpt lat="45.01968" lon="2.91249">
        <ele>1067.16</ele>
        <time>2022-06-28T16:07:58Z</time>
      </trkpt>
      <trkpt lat="45.01963" lon="2.91247">
        <ele>1067.29</ele>
        <time>2022-06-28T16:07:59Z</time>
      </trkpt>
      <trkpt lat="45.01958" lon="2.91246">
        <ele>1067.44</ele>
        <time>2022-06-28T16:08:00Z</time>
      </trkpt>
      <trkpt lat="45.01953" lon="2.91247">
        <ele>1067.58</ele>
        <time>2022-06-28T16:08:01Z</time>
      </trkpt>
      <trkpt lat="45.01948" lon="2.9125">
        <ele>1067.74</ele>
        <time>2022-06-28T16:08:02Z</time>
      </trkpt>
      <trkpt lat="45.01944" lon="2.91254">
        <ele>1067.86</ele>
        <time>2022-06-28T16:08:03Z</time>
      </trkpt>
      <trkpt lat="45.0194" lon="2.91259">
        <ele>1067.97</ele>
        <time>2022-06-28T16:08:04Z</time>
      </trkpt>
      <trkpt lat="45.01938" lon="2.91265">
        <ele>1068</ele>
        <time>2022-06-28T16:08:05Z</time>
      </trkpt>
      <trkpt lat="45.01938" lon="2.91272">
        <ele>1068.03</ele>
        <time>2022-06-28T16:08:06Z</time>
      </trkpt>
      <trkpt lat="45.01937" lon="2.9128">
        <ele>1068.06</ele>
        <time>2022-06-28T16:08:07Z</time>
      </trkpt>
      <trkpt lat="45.01934" lon="2.91342">
        <ele>1068.08</ele>
        <time>2022-06-28T16:08:15Z</time>
      </trkpt>
      <trkpt lat="45.01933" lon="2.9135">
        <ele>1068.02</ele>
        <time>2022-06-28T16:08:16Z</time>
      </trkpt>
      <trkpt lat="45.01931" lon="2.91357">
        <ele>1067.98</ele>
        <time>2022-06-28T16:08:17Z</time>
      </trkpt>
      <trkpt lat="45.01928" lon="2.91364">
        <ele>1067.92</ele>
        <time>2022-06-28T16:08:18Z</time>
      </trkpt>
      <trkpt lat="45.01924" lon="2.91369">
        <ele>1067.86</ele>
        <time>2022-06-28T16:08:19Z</time>
      </trkpt>
      <trkpt lat="45.01921" lon="2.91375">
        <ele>1067.8</ele>
        <time>2022-06-28T16:08:20Z</time>
      </trkpt>
      <trkpt lat="45.01914" lon="2.91385">
        <ele>1067.8</ele>
        <time>2022-06-28T16:08:22Z</time>
      </trkpt>
      <trkpt lat="45.01911" lon="2.91391">
        <ele>1067.84</ele>
        <time>2022-06-28T16:08:23Z</time>
      </trkpt>
      <trkpt lat="45.01908" lon="2.91398">
        <ele>1067.93</ele>
        <time>2022-06-28T16:08:24Z</time>
      </trkpt>
      <trkpt lat="45.01906" lon="2.91404">
        <ele>1068.1</ele>
        <time>2022-06-28T16:08:25Z</time>
      </trkpt>
      <trkpt lat="45.01905" lon="2.91412">
        <ele>1068.25</ele>
        <time>2022-06-28T16:08:26Z</time>
      </trkpt>
      <trkpt lat="45.01906" lon="2.9142">
        <ele>1068.4</ele>
        <time>2022-06-28T16:08:27Z</time>
      </trkpt>
      <trkpt lat="45.01908" lon="2.91427">
        <ele>1068.52</ele>
        <time>2022-06-28T16:08:28Z</time>
      </trkpt>
      <trkpt lat="45.01911" lon="2.91435">
        <ele>1068.59</ele>
        <time>2022-06-28T16:08:29Z</time>
      </trkpt>
      <trkpt lat="45.01914" lon="2.91443">
        <ele>1068.58</ele>
        <time>2022-06-28T16:08:30Z</time>
      </trkpt>
      <trkpt lat="45.01916" lon="2.91453">
        <ele>1068.53</ele>
        <time>2022-06-28T16:08:31Z</time>
      </trkpt>
      <trkpt lat="45.01918" lon="2.9151">
        <ele>1067.53</ele>
        <time>2022-06-28T16:08:37Z</time>
      </trkpt>
      <trkpt lat="45.01916" lon="2.91548">
        <ele>1066.79</ele>
        <time>2022-06-28T16:08:41Z</time>
      </trkpt>
      <trkpt lat="45.01913" lon="2.91566">
        <ele>1066.36</ele>
        <time>2022-06-28T16:08:43Z</time>
      </trkpt>
      <trkpt lat="45.01905" lon="2.916">
        <ele>1065.53</ele>
        <time>2022-06-28T16:08:47Z</time>
      </trkpt>
      <trkpt lat="45.01903" lon="2.91608">
        <ele>1065.41</ele>
        <time>2022-06-28T16:08:48Z</time>
      </trkpt>
      <trkpt lat="45.019" lon="2.91627">
        <ele>1065.11</ele>
        <time>2022-06-28T16:08:50Z</time>
      </trkpt>
      <trkpt lat="45.019" lon="2.91636">
        <ele>1064.96</ele>
        <time>2022-06-28T16:08:51Z</time>
      </trkpt>
      <trkpt lat="45.01899" lon="2.91665">
        <ele>1064.4</ele>
        <time>2022-06-28T16:08:54Z</time>
      </trkpt>
      <trkpt lat="45.01898" lon="2.91675">
        <ele>1064.1</ele>
        <time>2022-06-28T16:08:55Z</time>
      </trkpt>
      <trkpt lat="45.01897" lon="2.91707">
        <ele>1062.96</ele>
        <time>2022-06-28T16:08:58Z</time>
      </trkpt>
      <trkpt lat="45.01898" lon="2.91717">
        <ele>1062.57</ele>
        <time>2022-06-28T16:08:59Z</time>
      </trkpt>
      <trkpt lat="45.01897" lon="2.91728">
        <ele>1062.2</ele>
        <time>2022-06-28T16:09:00Z</time>
      </trkpt>
      <trkpt lat="45.01895" lon="2.91739">
        <ele>1061.79</ele>
        <time>2022-06-28T16:09:01Z</time>
      </trkpt>
      <trkpt lat="45.01892" lon="2.9175">
        <ele>1061.25</ele>
        <time>2022-06-28T16:09:02Z</time>
      </trkpt>
      <trkpt lat="45.01889" lon="2.91761">
        <ele>1060.55</ele>
        <time>2022-06-28T16:09:03Z</time>
      </trkpt>
      <trkpt lat="45.01883" lon="2.91783">
        <ele>1059.25</ele>
        <time>2022-06-28T16:09:05Z</time>
      </trkpt>
      <trkpt lat="45.01881" lon="2.91794">
        <ele>1058.72</ele>
        <time>2022-06-28T16:09:06Z</time>
      </trkpt>
      <trkpt lat="45.01876" lon="2.9183">
        <ele>1057.61</ele>
        <time>2022-06-28T16:09:09Z</time>
      </trkpt>
      <trkpt lat="45.01874" lon="2.91842">
        <ele>1057.33</ele>
        <time>2022-06-28T16:09:10Z</time>
      </trkpt>
      <trkpt lat="45.0187" lon="2.91853">
        <ele>1056.45</ele>
        <time>2022-06-28T16:09:11Z</time>
      </trkpt>
      <trkpt lat="45.01866" lon="2.91864">
        <ele>1055.91</ele>
        <time>2022-06-28T16:09:12Z</time>
      </trkpt>
      <trkpt lat="45.01861" lon="2.91875">
        <ele>1055.43</ele>
        <time>2022-06-28T16:09:13Z</time>
      </trkpt>
      <trkpt lat="45.01829" lon="2.91948">
        <ele>1052.38</ele>
        <time>2022-06-28T16:09:20Z</time>
      </trkpt>
      <trkpt lat="45.01774" lon="2.9209">
        <ele>1049.41</ele>
        <time>2022-06-28T16:09:35Z</time>
      </trkpt>
      <trkpt lat="45.01714" lon="2.92228">
        <ele>1047.74</ele>
        <time>2022-06-28T16:09:51Z</time>
      </trkpt>
      <trkpt lat="45.01705" lon="2.92243">
        <ele>1047.6</ele>
        <time>2022-06-28T16:09:53Z</time>
      </trkpt>
      <trkpt lat="45.01686" lon="2.9227">
        <ele>1047.34</ele>
        <time>2022-06-28T16:09:57Z</time>
      </trkpt>
      <trkpt lat="45.01682" lon="2.92277">
        <ele>1047.27</ele>
        <time>2022-06-28T16:09:58Z</time>
      </trkpt>
      <trkpt lat="45.01633" lon="2.92387">
        <ele>1045.31</ele>
        <time>2022-06-28T16:10:11Z</time>
      </trkpt>
      <trkpt lat="45.01615" lon="2.92415">
        <ele>1044.88</ele>
        <time>2022-06-28T16:10:15Z</time>
      </trkpt>
      <trkpt lat="45.01612" lon="2.92423">
        <ele>1044.81</ele>
        <time>2022-06-28T16:10:16Z</time>
      </trkpt>
      <trkpt lat="45.01609" lon="2.92431">
        <ele>1044.74</ele>
        <time>2022-06-28T16:10:17Z</time>
      </trkpt>
      <trkpt lat="45.01575" lon="2.92556">
        <ele>1043.52</ele>
        <time>2022-06-28T16:10:32Z</time>
      </trkpt>
      <trkpt lat="45.01575" lon="2.92565">
        <ele>1043.47</ele>
        <time>2022-06-28T16:10:33Z</time>
      </trkpt>
      <trkpt lat="45.01575" lon="2.92574">
        <ele>1043.41</ele>
        <time>2022-06-28T16:10:34Z</time>
      </trkpt>
      <trkpt lat="45.01576" lon="2.92583">
        <ele>1043.32</ele>
        <time>2022-06-28T16:10:35Z</time>
      </trkpt>
      <trkpt lat="45.01578" lon="2.92592">
        <ele>1043.25</ele>
        <time>2022-06-28T16:10:36Z</time>
      </trkpt>
      <trkpt lat="45.0158" lon="2.926">
        <ele>1043.19</ele>
        <time>2022-06-28T16:10:37Z</time>
      </trkpt>
      <trkpt lat="45.01593" lon="2.9272">
        <ele>1043.47</ele>
        <time>2022-06-28T16:10:52Z</time>
      </trkpt>
      <trkpt lat="45.01596" lon="2.92797">
        <ele>1045.76</ele>
        <time>2022-06-28T16:11:02Z</time>
      </trkpt>
      <trkpt lat="45.01595" lon="2.92805">
        <ele>1045.96</ele>
        <time>2022-06-28T16:11:03Z</time>
      </trkpt>
      <trkpt lat="45.01593" lon="2.92812">
        <ele>1046.11</ele>
        <time>2022-06-28T16:11:04Z</time>
      </trkpt>
      <trkpt lat="45.01586" lon="2.92833">
        <ele>1046.5</ele>
        <time>2022-06-28T16:11:07Z</time>
      </trkpt>
      <trkpt lat="45.01555" lon="2.92899">
        <ele>1046.67</ele>
        <time>2022-06-28T16:11:17Z</time>
      </trkpt>
      <trkpt lat="45.01553" lon="2.92907">
        <ele>1046.58</ele>
        <time>2022-06-28T16:11:18Z</time>
      </trkpt>
      <trkpt lat="45.01551" lon="2.92915">
        <ele>1046.5</ele>
        <time>2022-06-28T16:11:19Z</time>
      </trkpt>
      <trkpt lat="45.0155" lon="2.92922">
        <ele>1046.41</ele>
        <time>2022-06-28T16:11:20Z</time>
      </trkpt>
      <trkpt lat="45.01549" lon="2.9293">
        <ele>1046.34</ele>
        <time>2022-06-28T16:11:21Z</time>
      </trkpt>
      <trkpt lat="45.01548" lon="2.92938">
        <ele>1046.28</ele>
        <time>2022-06-28T16:11:22Z</time>
      </trkpt>
      <trkpt lat="45.01536" lon="2.93018">
        <ele>1046.31</ele>
        <time>2022-06-28T16:11:32Z</time>
      </trkpt>
      <trkpt lat="45.01534" lon="2.93027">
        <ele>1046.35</ele>
        <time>2022-06-28T16:11:33Z</time>
      </trkpt>
      <trkpt lat="45.01531" lon="2.93035">
        <ele>1046.39</ele>
        <time>2022-06-28T16:11:34Z</time>
      </trkpt>
      <trkpt lat="45.01528" lon="2.93042">
        <ele>1046.43</ele>
        <time>2022-06-28T16:11:35Z</time>
      </trkpt>
      <trkpt lat="45.01525" lon="2.93049">
        <ele>1046.49</ele>
        <time>2022-06-28T16:11:36Z</time>
      </trkpt>
      <trkpt lat="45.01521" lon="2.93056">
        <ele>1046.53</ele>
        <time>2022-06-28T16:11:37Z</time>
      </trkpt>
      <trkpt lat="45.01462" lon="2.93159">
        <ele>1046.07</ele>
        <time>2022-06-28T16:11:52Z</time>
      </trkpt>
      <trkpt lat="45.01414" lon="2.93244">
        <ele>1042.77</ele>
        <time>2022-06-28T16:12:02Z</time>
      </trkpt>
      <trkpt lat="45.01376" lon="2.93283">
        <ele>1039.42</ele>
        <time>2022-06-28T16:12:08Z</time>
      </trkpt>
      <trkpt lat="45.0137" lon="2.93289">
        <ele>1039.09</ele>
        <time>2022-06-28T16:12:09Z</time>
      </trkpt>
      <trkpt lat="45.01365" lon="2.93296">
        <ele>1038.79</ele>
        <time>2022-06-28T16:12:10Z</time>
      </trkpt>
      <trkpt lat="45.01361" lon="2.93305">
        <ele>1038.51</ele>
        <time>2022-06-28T16:12:11Z</time>
      </trkpt>
      <trkpt lat="45.01358" lon="2.93314">
        <ele>1038.26</ele>
        <time>2022-06-28T16:12:12Z</time>
      </trkpt>
      <trkpt lat="45.01357" lon="2.93324">
        <ele>1038.02</ele>
        <time>2022-06-28T16:12:13Z</time>
      </trkpt>
      <trkpt lat="45.01356" lon="2.93335">
        <ele>1037.7</ele>
        <time>2022-06-28T16:12:14Z</time>
      </trkpt>
      <trkpt lat="45.01356" lon="2.93346">
        <ele>1037.25</ele>
        <time>2022-06-28T16:12:15Z</time>
      </trkpt>
      <trkpt lat="45.01356" lon="2.93357">
        <ele>1036.75</ele>
        <time>2022-06-28T16:12:16Z</time>
      </trkpt>
      <trkpt lat="45.01356" lon="2.93446">
        <ele>1033.74</ele>
        <time>2022-06-28T16:12:25Z</time>
      </trkpt>
      <trkpt lat="45.01353" lon="2.9349">
        <ele>1033.15</ele>
        <time>2022-06-28T16:12:30Z</time>
      </trkpt>
      <trkpt lat="45.01351" lon="2.93499">
        <ele>1033.23</ele>
        <time>2022-06-28T16:12:31Z</time>
      </trkpt>
      <trkpt lat="45.01344" lon="2.9353">
        <ele>1033.31</ele>
        <time>2022-06-28T16:12:35Z</time>
      </trkpt>
      <trkpt lat="45.01344" lon="2.93536">
        <ele>1033.29</ele>
        <time>2022-06-28T16:12:36Z</time>
      </trkpt>
      <trkpt lat="45.01343" lon="2.93542">
        <ele>1033.3</ele>
        <time>2022-06-28T16:12:37Z</time>
      </trkpt>
      <trkpt lat="45.01341" lon="2.93545">
        <ele>1033.32</ele>
        <time>2022-06-28T16:12:38Z</time>
      </trkpt>
      <trkpt lat="45.01338" lon="2.93545">
        <ele>1033.39</ele>
        <time>2022-06-28T16:12:39Z</time>
      </trkpt>
      <trkpt lat="45.01336" lon="2.93543">
        <ele>1033.57</ele>
        <time>2022-06-28T16:12:40Z</time>
      </trkpt>
      <trkpt lat="45.01334" lon="2.93539">
        <ele>1033.85</ele>
        <time>2022-06-28T16:12:41Z</time>
      </trkpt>
      <trkpt lat="45.01332" lon="2.93535">
        <ele>1034.12</ele>
        <time>2022-06-28T16:12:42Z</time>
      </trkpt>
      <trkpt lat="45.0133" lon="2.9353">
        <ele>1034.38</ele>
        <time>2022-06-28T16:12:43Z</time>
      </trkpt>
      <trkpt lat="45.01328" lon="2.93524">
        <ele>1034.61</ele>
        <time>2022-06-28T16:12:44Z</time>
      </trkpt>
      <trkpt lat="45.01302" lon="2.93462">
        <ele>1035.68</ele>
        <time>2022-06-28T16:12:54Z</time>
      </trkpt>
      <trkpt lat="45.0126" lon="2.93397">
        <ele>1036.65</ele>
        <time>2022-06-28T16:13:07Z</time>
      </trkpt>
      <trkpt lat="45.01258" lon="2.93392">
        <ele>1036.75</ele>
        <time>2022-06-28T16:13:08Z</time>
      </trkpt>
      <trkpt lat="45.01256" lon="2.93387">
        <ele>1036.9</ele>
        <time>2022-06-28T16:13:09Z</time>
      </trkpt>
      <trkpt lat="45.01253" lon="2.93375">
        <ele>1037.29</ele>
        <time>2022-06-28T16:13:11Z</time>
      </trkpt>
      <trkpt lat="45.01244" lon="2.93321">
        <ele>1038.95</ele>
        <time>2022-06-28T16:13:20Z</time>
      </trkpt>
      <trkpt lat="45.01243" lon="2.93254">
        <ele>1040</ele>
        <time>2022-06-28T16:13:33Z</time>
      </trkpt>
      <trkpt lat="45.0122" lon="2.93208">
        <ele>1041.09</ele>
        <time>2022-06-28T16:13:43Z</time>
      </trkpt>
      <trkpt lat="45.0119" lon="2.93121">
        <ele>1044.13</ele>
        <time>2022-06-28T16:14:00Z</time>
      </trkpt>
      <trkpt lat="45.01155" lon="2.93022">
        <ele>1046.68</ele>
        <time>2022-06-28T16:14:19Z</time>
      </trkpt>
      <trkpt lat="45.0111" lon="2.92901">
        <ele>1049.77</ele>
        <time>2022-06-28T16:14:41Z</time>
      </trkpt>
      <trkpt lat="45.01086" lon="2.92834">
        <ele>1052.84</ele>
        <time>2022-06-28T16:14:54Z</time>
      </trkpt>
      <trkpt lat="45.01081" lon="2.92818">
        <ele>1053.8</ele>
        <time>2022-06-28T16:14:57Z</time>
      </trkpt>
      <trkpt lat="45.01079" lon="2.92807">
        <ele>1054.15</ele>
        <time>2022-06-28T16:14:59Z</time>
      </trkpt>
      <trkpt lat="45.01078" lon="2.92801">
        <ele>1054.26</ele>
        <time>2022-06-28T16:15:00Z</time>
      </trkpt>
      <trkpt lat="45.01077" lon="2.92795">
        <ele>1054.38</ele>
        <time>2022-06-28T16:15:01Z</time>
      </trkpt>
      <trkpt lat="45.01077" lon="2.92789">
        <ele>1054.5</ele>
        <time>2022-06-28T16:15:02Z</time>
      </trkpt>
      <trkpt lat="45.01078" lon="2.92784">
        <ele>1054.63</ele>
        <time>2022-06-28T16:15:03Z</time>
      </trkpt>
      <trkpt lat="45.01078" lon="2.92778">
        <ele>1054.75</ele>
        <time>2022-06-28T16:15:04Z</time>
      </trkpt>
      <trkpt lat="45.01088" lon="2.92664">
        <ele>1057.59</ele>
        <time>2022-06-28T16:15:25Z</time>
      </trkpt>
      <trkpt lat="45.01077" lon="2.92591">
        <ele>1060.62</ele>
        <time>2022-06-28T16:15:40Z</time>
      </trkpt>
      <trkpt lat="45.0106" lon="2.92548">
        <ele>1063.75</ele>
        <time>2022-06-28T16:15:50Z</time>
      </trkpt>
      <trkpt lat="45.01057" lon="2.92548">
        <ele>1064.05</ele>
        <time>2022-06-28T16:15:51Z</time>
      </trkpt>
      <trkpt lat="45.01054" lon="2.9255">
        <ele>1064.29</ele>
        <time>2022-06-28T16:15:52Z</time>
      </trkpt>
      <trkpt lat="45.01051" lon="2.92555">
        <ele>1064.49</ele>
        <time>2022-06-28T16:15:53Z</time>
      </trkpt>
      <trkpt lat="45.01048" lon="2.92561">
        <ele>1064.61</ele>
        <time>2022-06-28T16:15:54Z</time>
      </trkpt>
      <trkpt lat="45.01046" lon="2.92567">
        <ele>1064.64</ele>
        <time>2022-06-28T16:15:55Z</time>
      </trkpt>
      <trkpt lat="45.01013" lon="2.92667">
        <ele>1061.38</ele>
        <time>2022-06-28T16:16:07Z</time>
      </trkpt>
      <trkpt lat="45.00985" lon="2.92751">
        <ele>1058.31</ele>
        <time>2022-06-28T16:16:17Z</time>
      </trkpt>
      <trkpt lat="45.00926" lon="2.92886">
        <ele>1055.95</ele>
        <time>2022-06-28T16:16:34Z</time>
      </trkpt>
      <trkpt lat="45.00921" lon="2.92893">
        <ele>1055.79</ele>
        <time>2022-06-28T16:16:35Z</time>
      </trkpt>
      <trkpt lat="45.00916" lon="2.92898">
        <ele>1055.64</ele>
        <time>2022-06-28T16:16:36Z</time>
      </trkpt>
      <trkpt lat="45.0091" lon="2.92902">
        <ele>1055.42</ele>
        <time>2022-06-28T16:16:37Z</time>
      </trkpt>
      <trkpt lat="45.00893" lon="2.92915">
        <ele>1055.2</ele>
        <time>2022-06-28T16:16:40Z</time>
      </trkpt>
      <trkpt lat="45.00853" lon="2.92976">
        <ele>1054.65</ele>
        <time>2022-06-28T16:16:50Z</time>
      </trkpt>
      <trkpt lat="45.0085" lon="2.92984">
        <ele>1054.66</ele>
        <time>2022-06-28T16:16:51Z</time>
      </trkpt>
      <trkpt lat="45.00812" lon="2.93152">
        <ele>1053.38</ele>
        <time>2022-06-28T16:17:12Z</time>
      </trkpt>
      <trkpt lat="45.00775" lon="2.93298">
        <ele>1052.67</ele>
        <time>2022-06-28T16:17:30Z</time>
      </trkpt>
      <trkpt lat="45.00772" lon="2.93305">
        <ele>1052.44</ele>
        <time>2022-06-28T16:17:31Z</time>
      </trkpt>
      <trkpt lat="45.00768" lon="2.93312">
        <ele>1052.24</ele>
        <time>2022-06-28T16:17:32Z</time>
      </trkpt>
      <trkpt lat="45.00763" lon="2.93316">
        <ele>1052.07</ele>
        <time>2022-06-28T16:17:33Z</time>
      </trkpt>
      <trkpt lat="45.00757" lon="2.93318">
        <ele>1051.94</ele>
        <time>2022-06-28T16:17:34Z</time>
      </trkpt>
      <trkpt lat="45.00751" lon="2.93317">
        <ele>1051.84</ele>
        <time>2022-06-28T16:17:35Z</time>
      </trkpt>
      <trkpt lat="45.00744" lon="2.93314">
        <ele>1051.77</ele>
        <time>2022-06-28T16:17:36Z</time>
      </trkpt>
      <trkpt lat="45.00738" lon="2.93311">
        <ele>1051.69</ele>
        <time>2022-06-28T16:17:37Z</time>
      </trkpt>
      <trkpt lat="45.00633" lon="2.9324">
        <ele>1050.16</ele>
        <time>2022-06-28T16:17:54Z</time>
      </trkpt>
      <trkpt lat="45.00526" lon="2.93148">
        <ele>1048.16</ele>
        <time>2022-06-28T16:18:12Z</time>
      </trkpt>
      <trkpt lat="45.00443" lon="2.93074">
        <ele>1047.16</ele>
        <time>2022-06-28T16:18:27Z</time>
      </trkpt>
      <trkpt lat="45.00421" lon="2.93057">
        <ele>1047.12</ele>
        <time>2022-06-28T16:18:31Z</time>
      </trkpt>
      <trkpt lat="45.00415" lon="2.93055">
        <ele>1047.11</ele>
        <time>2022-06-28T16:18:32Z</time>
      </trkpt>
      <trkpt lat="45.00409" lon="2.93054">
        <ele>1047.09</ele>
        <time>2022-06-28T16:18:33Z</time>
      </trkpt>
      <trkpt lat="45.00362" lon="2.93051">
        <ele>1046.6</ele>
        <time>2022-06-28T16:18:41Z</time>
      </trkpt>
      <trkpt lat="45.00357" lon="2.93049">
        <ele>1046.48</ele>
        <time>2022-06-28T16:18:42Z</time>
      </trkpt>
      <trkpt lat="45.00353" lon="2.93045">
        <ele>1046.33</ele>
        <time>2022-06-28T16:18:43Z</time>
      </trkpt>
      <trkpt lat="45.00349" lon="2.9304">
        <ele>1046.21</ele>
        <time>2022-06-28T16:18:44Z</time>
      </trkpt>
      <trkpt lat="45.00347" lon="2.93033">
        <ele>1046.12</ele>
        <time>2022-06-28T16:18:45Z</time>
      </trkpt>
      <trkpt lat="45.00345" lon="2.93026">
        <ele>1046.06</ele>
        <time>2022-06-28T16:18:46Z</time>
      </trkpt>
      <trkpt lat="45.0033" lon="2.9298">
        <ele>1045.85</ele>
        <time>2022-06-28T16:18:52Z</time>
      </trkpt>
      <trkpt lat="45.00326" lon="2.92974">
        <ele>1045.82</ele>
        <time>2022-06-28T16:18:53Z</time>
      </trkpt>
      <trkpt lat="45.0032" lon="2.9297">
        <ele>1045.76</ele>
        <time>2022-06-28T16:18:54Z</time>
      </trkpt>
      <trkpt lat="45.00314" lon="2.92966">
        <ele>1045.69</ele>
        <time>2022-06-28T16:18:55Z</time>
      </trkpt>
      <trkpt lat="45.00308" lon="2.92963">
        <ele>1045.61</ele>
        <time>2022-06-28T16:18:56Z</time>
      </trkpt>
      <trkpt lat="45.00231" lon="2.92938">
        <ele>1042.36</ele>
        <time>2022-06-28T16:19:06Z</time>
      </trkpt>
      <trkpt lat="45.00223" lon="2.92933">
        <ele>1042</ele>
        <time>2022-06-28T16:19:07Z</time>
      </trkpt>
      <trkpt lat="45.00216" lon="2.92927">
        <ele>1041.6</ele>
        <time>2022-06-28T16:19:08Z</time>
      </trkpt>
      <trkpt lat="45.00211" lon="2.92918">
        <ele>1041.18</ele>
        <time>2022-06-28T16:19:09Z</time>
      </trkpt>
      <trkpt lat="45.00207" lon="2.92909">
        <ele>1040.79</ele>
        <time>2022-06-28T16:19:10Z</time>
      </trkpt>
      <trkpt lat="45.00205" lon="2.92899">
        <ele>1040.47</ele>
        <time>2022-06-28T16:19:11Z</time>
      </trkpt>
      <trkpt lat="45.00203" lon="2.9289">
        <ele>1040.2</ele>
        <time>2022-06-28T16:19:12Z</time>
      </trkpt>
      <trkpt lat="45.00201" lon="2.92881">
        <ele>1039.98</ele>
        <time>2022-06-28T16:19:13Z</time>
      </trkpt>
      <trkpt lat="45.002" lon="2.92873">
        <ele>1039.84</ele>
        <time>2022-06-28T16:19:14Z</time>
      </trkpt>
      <trkpt lat="45.002" lon="2.92865">
        <ele>1039.89</ele>
        <time>2022-06-28T16:19:15Z</time>
      </trkpt>
      <trkpt lat="45.00201" lon="2.92856">
        <ele>1040.02</ele>
        <time>2022-06-28T16:19:16Z</time>
      </trkpt>
      <trkpt lat="45.00202" lon="2.92848">
        <ele>1040.15</ele>
        <time>2022-06-28T16:19:17Z</time>
      </trkpt>
      <trkpt lat="45.00203" lon="2.92839">
        <ele>1040.3</ele>
        <time>2022-06-28T16:19:18Z</time>
      </trkpt>
      <trkpt lat="45.00211" lon="2.92791">
        <ele>1041.01</ele>
        <time>2022-06-28T16:19:24Z</time>
      </trkpt>
      <trkpt lat="45.00213" lon="2.92783">
        <ele>1041.08</ele>
        <time>2022-06-28T16:19:25Z</time>
      </trkpt>
      <trkpt lat="45.0023" lon="2.92741">
        <ele>1041.65</ele>
        <time>2022-06-28T16:19:31Z</time>
      </trkpt>
      <trkpt lat="45.00234" lon="2.92735">
        <ele>1041.72</ele>
        <time>2022-06-28T16:19:32Z</time>
      </trkpt>
      <trkpt lat="45.00238" lon="2.92729">
        <ele>1041.76</ele>
        <time>2022-06-28T16:19:33Z</time>
      </trkpt>
      <trkpt lat="45.00244" lon="2.92725">
        <ele>1041.78</ele>
        <time>2022-06-28T16:19:34Z</time>
      </trkpt>
      <trkpt lat="45.00249" lon="2.92723">
        <ele>1041.78</ele>
        <time>2022-06-28T16:19:35Z</time>
      </trkpt>
      <trkpt lat="45.00255" lon="2.92722">
        <ele>1041.76</ele>
        <time>2022-06-28T16:19:36Z</time>
      </trkpt>
      <trkpt lat="45.00261" lon="2.92722">
        <ele>1041.75</ele>
        <time>2022-06-28T16:19:37Z</time>
      </trkpt>
      <trkpt lat="45.00291" lon="2.92716">
        <ele>1042.49</ele>
        <time>2022-06-28T16:19:44Z</time>
      </trkpt>
      <trkpt lat="45.00293" lon="2.92712">
        <ele>1042.71</ele>
        <time>2022-06-28T16:19:45Z</time>
      </trkpt>
      <trkpt lat="45.00294" lon="2.92706">
        <ele>1042.91</ele>
        <time>2022-06-28T16:19:46Z</time>
      </trkpt>
      <trkpt lat="45.00299" lon="2.92686">
        <ele>1043.24</ele>
        <time>2022-06-28T16:19:49Z</time>
      </trkpt>
      <trkpt lat="45.00327" lon="2.92567">
        <ele>1042.07</ele>
        <time>2022-06-28T16:20:03Z</time>
      </trkpt>
      <trkpt lat="45.00348" lon="2.92424">
        <ele>1040.87</ele>
        <time>2022-06-28T16:20:19Z</time>
      </trkpt>
      <trkpt lat="45.00361" lon="2.92267">
        <ele>1041.22</ele>
        <time>2022-06-28T16:20:37Z</time>
      </trkpt>
      <trkpt lat="45.00371" lon="2.92229">
        <ele>1041.76</ele>
        <time>2022-06-28T16:20:42Z</time>
      </trkpt>
      <trkpt lat="45.00393" lon="2.92134">
        <ele>1043.81</ele>
        <time>2022-06-28T16:20:56Z</time>
      </trkpt>
      <trkpt lat="45.00395" lon="2.92116">
        <ele>1044.72</ele>
        <time>2022-06-28T16:20:59Z</time>
      </trkpt>
      <trkpt lat="45.00398" lon="2.92111">
        <ele>1044.97</ele>
        <time>2022-06-28T16:21:00Z</time>
      </trkpt>
      <trkpt lat="45.00401" lon="2.92108">
        <ele>1045.22</ele>
        <time>2022-06-28T16:21:01Z</time>
      </trkpt>
      <trkpt lat="45.00404" lon="2.92106">
        <ele>1045.48</ele>
        <time>2022-06-28T16:21:02Z</time>
      </trkpt>
      <trkpt lat="45.00408" lon="2.92103">
        <ele>1045.71</ele>
        <time>2022-06-28T16:21:03Z</time>
      </trkpt>
      <trkpt lat="45.00411" lon="2.921">
        <ele>1045.9</ele>
        <time>2022-06-28T16:21:04Z</time>
      </trkpt>
      <trkpt lat="45.00414" lon="2.92097">
        <ele>1046.08</ele>
        <time>2022-06-28T16:21:05Z</time>
      </trkpt>
      <trkpt lat="45.00417" lon="2.92094">
        <ele>1046.25</ele>
        <time>2022-06-28T16:21:06Z</time>
      </trkpt>
      <trkpt lat="45.00446" lon="2.92063">
        <ele>1047.76</ele>
        <time>2022-06-28T16:21:16Z</time>
      </trkpt>
      <trkpt lat="45.00515" lon="2.92011">
        <ele>1050.45</ele>
        <time>2022-06-28T16:21:39Z</time>
      </trkpt>
      <trkpt lat="45.00582" lon="2.91975">
        <ele>1053.6</ele>
        <time>2022-06-28T16:22:01Z</time>
      </trkpt>
      <trkpt lat="45.00812" lon="2.91549">
        <ele>1078.43</ele>
        <time>2022-06-28T16:24:05Z</time>
      </trkpt>
      <trkpt lat="45.00904" lon="2.91248">
        <ele>1099.81</ele>
        <time>2022-06-28T16:25:14Z</time>
      </trkpt>
      <trkpt lat="45.00924" lon="2.91181">
        <ele>1101.97</ele>
        <time>2022-06-28T16:25:29Z</time>
      </trkpt>
      <trkpt lat="45.00948" lon="2.9115">
        <ele>1103.49</ele>
        <time>2022-06-28T16:25:38Z</time>
      </trkpt>
      <trkpt lat="45.00951" lon="2.91146">
        <ele>1103.65</ele>
        <time>2022-06-28T16:25:39Z</time>
      </trkpt>
      <trkpt lat="45.00954" lon="2.9114">
        <ele>1103.82</ele>
        <time>2022-06-28T16:25:40Z</time>
      </trkpt>
      <trkpt lat="45.00994" lon="2.91041">
        <ele>1106.9</ele>
        <time>2022-06-28T16:25:57Z</time>
      </trkpt>
      <trkpt lat="45.01024" lon="2.90945">
        <ele>1108.31</ele>
        <time>2022-06-28T16:26:14Z</time>
      </trkpt>
      <trkpt lat="45.01035" lon="2.90852">
        <ele>1110.75</ele>
        <time>2022-06-28T16:26:30Z</time>
      </trkpt>
      <trkpt lat="45.01033" lon="2.9084">
        <ele>1111.11</ele>
        <time>2022-06-28T16:26:32Z</time>
      </trkpt>
      <trkpt lat="45.01031" lon="2.90835">
        <ele>1111.28</ele>
        <time>2022-06-28T16:26:33Z</time>
      </trkpt>
      <trkpt lat="45.01029" lon="2.90831">
        <ele>1111.42</ele>
        <time>2022-06-28T16:26:34Z</time>
      </trkpt>
      <trkpt lat="45.01026" lon="2.90828">
        <ele>1111.55</ele>
        <time>2022-06-28T16:26:35Z</time>
      </trkpt>
      <trkpt lat="45.01023" lon="2.90825">
        <ele>1111.7</ele>
        <time>2022-06-28T16:26:36Z</time>
      </trkpt>
      <trkpt lat="45.0102" lon="2.90821">
        <ele>1111.81</ele>
        <time>2022-06-28T16:26:37Z</time>
      </trkpt>
      <trkpt lat="45.00973" lon="2.90777">
        <ele>1110.44</ele>
        <time>2022-06-28T16:26:49Z</time>
      </trkpt>
      <trkpt lat="45.00969" lon="2.90772">
        <ele>1110.21</ele>
        <time>2022-06-28T16:26:50Z</time>
      </trkpt>
      <trkpt lat="45.00966" lon="2.90766">
        <ele>1110.02</ele>
        <time>2022-06-28T16:26:51Z</time>
      </trkpt>
      <trkpt lat="45.00964" lon="2.90761">
        <ele>1109.89</ele>
        <time>2022-06-28T16:26:52Z</time>
      </trkpt>
      <trkpt lat="45.00961" lon="2.90756">
        <ele>1109.8</ele>
        <time>2022-06-28T16:26:53Z</time>
      </trkpt>
      <trkpt lat="45.00958" lon="2.9075">
        <ele>1109.72</ele>
        <time>2022-06-28T16:26:54Z</time>
      </trkpt>
      <trkpt lat="45.00954" lon="2.90745">
        <ele>1109.66</ele>
        <time>2022-06-28T16:26:55Z</time>
      </trkpt>
      <trkpt lat="45.00933" lon="2.90716">
        <ele>1108.57</ele>
        <time>2022-06-28T16:27:00Z</time>
      </trkpt>
      <trkpt lat="45.00931" lon="2.90709">
        <ele>1108.23</ele>
        <time>2022-06-28T16:27:01Z</time>
      </trkpt>
      <trkpt lat="45.00931" lon="2.90702">
        <ele>1107.78</ele>
        <time>2022-06-28T16:27:02Z</time>
      </trkpt>
      <trkpt lat="45.00932" lon="2.90695">
        <ele>1107.33</ele>
        <time>2022-06-28T16:27:03Z</time>
      </trkpt>
      <trkpt lat="45.00933" lon="2.90688">
        <ele>1106.96</ele>
        <time>2022-06-28T16:27:04Z</time>
      </trkpt>
      <trkpt lat="45.00934" lon="2.90682">
        <ele>1106.67</ele>
        <time>2022-06-28T16:27:05Z</time>
      </trkpt>
      <trkpt lat="45.00935" lon="2.90676">
        <ele>1106.48</ele>
        <time>2022-06-28T16:27:06Z</time>
      </trkpt>
      <trkpt lat="45.00937" lon="2.9067">
        <ele>1106.48</ele>
        <time>2022-06-28T16:27:07Z</time>
      </trkpt>
      <trkpt lat="45.0094" lon="2.90666">
        <ele>1106.58</ele>
        <time>2022-06-28T16:27:08Z</time>
      </trkpt>
      <trkpt lat="45.00942" lon="2.90663">
        <ele>1106.82</ele>
        <time>2022-06-28T16:27:09Z</time>
      </trkpt>
      <trkpt lat="45.00943" lon="2.9066">
        <ele>1106.96</ele>
        <time>2022-06-28T16:27:10Z</time>
      </trkpt>
      <trkpt lat="45.00943" lon="2.90661">
        <ele>1107.52</ele>
        <time>2022-06-28T16:27:14Z</time>
      </trkpt>
      <trkpt lat="45.00943" lon="2.90663">
        <ele>1107.79</ele>
        <time>2022-06-28T16:27:19Z</time>
      </trkpt>
    </trkseg>
  </trk>
</gpx>